Time,TemperatureF,DewpointF,PressureIn,WindDirection,WindDirectionDegrees,WindSpeedMPH,WindSpeedGustMPH,Humidity,HourlyPrecipIn,Conditions,Clouds,dailyrainin,SoftwareType,DateUTC
2013-12-03 00:00:00,39.2,37.6,29.92,NNW,329,1.0,1.0,94,0.00,,,0.00,Wunderground v.1.15,2013-12-03 05:00:00,
2013-12-03 00:01:00,39.3,37.7,29.92,NNW,329,0.0,1.0,94,0.00,,,0.00,Wunderground v.1.15,2013-12-03 05:01:00,
2013-12-03 00:02:00,39.2,37.6,29.91,NNW,330,1.0,1.0,94,0.00,,,0.00,Wunderground v.1.15,2013-12-03 05:02:00,
2013-12-03 00:04:00,39.2,37.6,29.91,NNW,330,0.0,1.0,94,0.00,,,0.00,Wunderground v.1.15,2013-12-03 05:04:00,
2013-12-03 00:06:00,39.2,37.6,29.91,NNW,335,0.0,1.0,94,0.00,,,0.00,Wunderground v.1.15,2013-12-03 05:06:00,
2013-12-03 00:07:00,39.2,37.6,29.91,NNW,334,1.0,1.0,94,0.00,,,0.00,Wunderground v.1.15,2013-12-03 05:07:00,
2013-12-03 00:08:00,39.2,37.6,29.91,NNW,342,2.0,2.0,94,0.00,,,0.00,Wunderground v.1.15,2013-12-03 05:08:00,
2013-12-03 00:10:00,39.2,37.6,29.91,NNW,332,1.0,1.0,94,0.00,,,0.00,Wunderground v.1.15,2013-12-03 05:10:00,
2013-12-03 00:12:00,39.2,37.6,29.91,NNW,342,0.0,1.0,94,0.00,,,0.00,Wunderground v.1.15,2013-12-03 05:12:00,
2013-12-03 00:13:00,39.2,37.6,29.91,NNW,337,2.0,2.0,94,0.00,,,0.00,Wunderground v.1.15,2013-12-03 05:13:00,
2013-12-03 00:15:00,39.2,37.6,29.91,NW,326,2.0,2.0,94,0.00,,,0.00,Wunderground v.1.15,2013-12-03 05:15:00,
2013-12-03 00:17:00,39.2,37.6,29.91,NNW,328,0.0,2.0,94,0.00,,,0.00,Wunderground v.1.15,2013-12-03 05:17:00,
2013-12-03 00:18:00,39.2,37.6,29.91,NNW,329,1.0,2.0,94,0.00,,,0.00,Wunderground v.1.15,2013-12-03 05:18:00,
2013-12-03 00:19:00,39.2,37.6,29.91,North,353,1.0,1.0,94,0.00,,,0.00,Wunderground v.1.15,2013-12-03 05:19:00,
2013-12-03 00:25:00,39.2,37.6,29.91,North,349,0.0,1.0,94,0.00,,,0.00,Wunderground v.1.15,2013-12-03 05:25:00,
2013-12-03 00:26:00,39.2,37.6,29.91,North,349,0.0,1.0,94,0.00,,,0.00,Wunderground v.1.15,2013-12-03 05:26:00,
2013-12-03 00:27:00,39.2,37.6,29.91,NNW,333,1.0,1.0,94,0.00,,,0.00,Wunderground v.1.15,2013-12-03 05:27:00,
2013-12-03 00:29:00,39.2,37.6,29.91,NNW,336,0.0,1.0,94,0.00,,,0.00,Wunderground v.1.15,2013-12-03 05:29:00,
2013-12-03 00:30:00,39.2,37.6,29.91,NNW,336,0.0,0.0,94,0.00,,,0.00,Wunderground v.1.15,2013-12-03 05:30:00,
2013-12-03 00:32:00,39.2,37.6,29.91,NNW,336,0.0,0.0,94,0.00,,,0.00,Wunderground v.1.15,2013-12-03 05:32:00,
2013-12-03 00:34:00,39.2,37.9,29.91,NNW,336,0.0,1.0,95,0.00,,,0.00,Wunderground v.1.15,2013-12-03 05:34:00,
2013-12-03 00:35:00,39.3,38.0,29.91,NNW,336,0.0,1.0,95,0.00,,,0.00,Wunderground v.1.15,2013-12-03 05:35:00,
2013-12-03 00:36:00,39.3,38.0,29.91,NNW,336,0.0,1.0,95,0.00,,,0.00,Wunderground v.1.15,2013-12-03 05:36:00,
2013-12-03 00:37:00,39.2,37.9,29.91,North,358,1.0,1.0,95,0.00,,,0.00,Wunderground v.1.15,2013-12-03 05:37:00,
2013-12-03 00:38:00,39.3,38.0,29.91,NNW,347,1.0,1.0,95,0.00,,,0.00,Wunderground v.1.15,2013-12-03 05:38:00,
2013-12-03 00:39:00,39.3,38.0,29.91,NNE,32,1.0,1.0,95,0.00,,,0.00,Wunderground v.1.15,2013-12-03 05:39:00,
2013-12-03 00:41:00,39.3,38.0,29.91,North,351,0.0,1.0,95,0.00,,,0.00,Wunderground v.1.15,2013-12-03 05:41:00,
2013-12-03 00:44:00,39.3,38.0,29.92,NNW,346,0.0,1.0,95,0.00,,,0.00,Wunderground v.1.15,2013-12-03 05:44:00,
2013-12-03 00:46:00,39.3,38.0,29.92,NNW,346,0.0,1.0,95,0.00,,,0.00,Wunderground v.1.15,2013-12-03 05:46:00,
2013-12-03 00:47:00,39.3,38.0,29.92,NNW,342,1.0,1.0,95,0.00,,,0.00,Wunderground v.1.15,2013-12-03 05:47:00,
2013-12-03 00:48:00,39.3,38.0,29.92,NNW,340,1.0,1.0,95,0.00,,,0.00,Wunderground v.1.15,2013-12-03 05:48:00,
2013-12-03 00:51:00,39.3,38.0,29.92,NNW,334,1.0,1.0,95,0.00,,,0.00,Wunderground v.1.15,2013-12-03 05:51:00,
2013-12-03 00:54:00,39.3,38.0,29.91,NW,323,1.0,1.0,95,0.00,,,0.00,Wunderground v.1.15,2013-12-03 05:54:00,
2013-12-03 00:55:00,39.3,38.0,29.91,NNW,339,1.0,2.0,95,0.00,,,0.00,Wunderground v.1.15,2013-12-03 05:55:00,
2013-12-03 00:57:00,39.3,38.0,29.91,North,11,2.0,2.0,95,0.00,,,0.00,Wunderground v.1.15,2013-12-03 05:57:00,
2013-12-03 01:00:00,39.3,38.0,29.92,North,353,0.0,1.0,95,0.00,,,0.00,Wunderground v.1.15,2013-12-03 06:00:00,
2013-12-03 01:05:00,39.3,38.0,29.92,NNW,338,1.0,1.0,95,0.00,,,0.00,Wunderground v.1.15,2013-12-03 06:05:00,
2013-12-03 01:06:00,39.3,38.0,29.92,NW,326,1.0,1.0,95,0.00,,,0.00,Wunderground v.1.15,2013-12-03 06:06:00,
2013-12-03 01:07:00,39.3,38.0,29.91,NNW,335,1.0,1.0,95,0.00,,,0.00,Wunderground v.1.15,2013-12-03 06:07:00,
2013-12-03 01:09:00,39.2,37.9,29.91,WNW,297,2.0,2.0,95,0.00,,,0.00,Wunderground v.1.15,2013-12-03 06:09:00,
2013-12-03 01:10:00,39.2,37.9,29.92,NNE,25,1.0,2.0,95,0.00,,,0.00,Wunderground v.1.15,2013-12-03 06:10:00,
2013-12-03 01:12:00,39.2,37.9,29.92,NNW,335,1.0,2.0,95,0.00,,,0.00,Wunderground v.1.15,2013-12-03 06:12:00,
2013-12-03 01:13:00,39.2,37.9,29.92,North,353,1.0,2.0,95,0.00,,,0.00,Wunderground v.1.15,2013-12-03 06:13:00,
2013-12-03 01:15:00,39.2,37.9,29.92,North,352,1.0,2.0,95,0.00,,,0.00,Wunderground v.1.15,2013-12-03 06:15:00,
2013-12-03 01:18:00,39.2,37.9,29.92,NW,326,1.0,2.0,95,0.00,,,0.00,Wunderground v.1.15,2013-12-03 06:18:00,
2013-12-03 01:19:00,39.2,37.9,29.92,NW,325,1.0,1.0,95,0.00,,,0.00,Wunderground v.1.15,2013-12-03 06:19:00,
2013-12-03 01:20:00,39.2,37.9,29.92,WNW,301,1.0,1.0,95,0.00,,,0.00,Wunderground v.1.15,2013-12-03 06:20:00,
2013-12-03 01:24:00,39.2,37.9,29.92,NNE,20,0.0,2.0,95,0.00,,,0.00,Wunderground v.1.15,2013-12-03 06:24:00,
2013-12-03 01:25:00,39.2,37.9,29.92,NNE,16,0.0,2.0,95,0.00,,,0.00,Wunderground v.1.15,2013-12-03 06:25:00,
2013-12-03 01:30:00,39.2,37.9,29.92,NNW,336,1.0,2.0,95,0.00,,,0.00,Wunderground v.1.15,2013-12-03 06:30:00,
2013-12-03 01:33:00,39.1,37.8,29.92,NNW,332,1.0,2.0,95,0.00,,,0.00,Wunderground v.1.15,2013-12-03 06:33:00,
2013-12-03 01:34:00,39.1,37.8,29.92,North,354,2.0,2.0,95,0.00,,,0.00,Wunderground v.1.15,2013-12-03 06:34:00,
2013-12-03 01:35:00,39.1,37.8,29.92,North,6,0.0,2.0,95,0.00,,,0.00,Wunderground v.1.15,2013-12-03 06:35:00,
2013-12-03 01:38:00,39.1,37.8,29.92,North,5,0.0,2.0,95,0.00,,,0.00,Wunderground v.1.15,2013-12-03 06:38:00,
2013-12-03 01:39:00,39.1,37.8,29.92,North,5,0.0,1.0,95,0.00,,,0.00,Wunderground v.1.15,2013-12-03 06:39:00,
2013-12-03 01:40:00,39.1,37.8,29.92,North,5,0.0,1.0,95,0.00,,,0.00,Wunderground v.1.15,2013-12-03 06:40:00,
2013-12-03 01:41:00,39.1,37.8,29.92,North,5,0.0,1.0,95,0.00,,,0.00,Wunderground v.1.15,2013-12-03 06:41:00,
2013-12-03 01:42:00,39.1,37.8,29.92,North,355,1.0,1.0,95,0.00,,,0.00,Wunderground v.1.15,2013-12-03 06:42:00,
2013-12-03 01:43:00,39.1,37.8,29.92,North,9,3.0,3.0,95,0.00,,,0.00,Wunderground v.1.15,2013-12-03 06:43:00,
2013-12-03 01:46:00,39.1,37.8,29.92,NNW,342,3.0,3.0,95,0.00,,,0.00,Wunderground v.1.15,2013-12-03 06:46:00,
2013-12-03 01:48:00,39.1,37.8,29.92,NNW,337,1.0,3.0,95,0.00,,,0.00,Wunderground v.1.15,2013-12-03 06:48:00,
2013-12-03 01:49:00,39.1,37.8,29.92,NNW,337,2.0,2.0,95,0.00,,,0.00,Wunderground v.1.15,2013-12-03 06:49:00,
2013-12-03 01:52:00,39.0,37.7,29.92,NNW,340,0.0,2.0,95,0.00,,,0.00,Wunderground v.1.15,2013-12-03 06:52:00,
2013-12-03 01:55:00,39.0,37.7,29.91,NNW,338,2.0,3.0,95,0.00,,,0.00,Wunderground v.1.15,2013-12-03 06:55:00,
2013-12-03 01:56:00,39.0,37.7,29.91,NNW,342,1.0,3.0,95,0.00,,,0.00,Wunderground v.1.15,2013-12-03 06:56:00,
2013-12-03 01:57:00,39.0,37.7,29.91,NNW,341,1.0,3.0,95,0.00,,,0.00,Wunderground v.1.15,2013-12-03 06:57:00,
2013-12-03 01:59:00,38.9,37.6,29.91,NNE,13,2.0,3.0,95,0.00,,,0.00,Wunderground v.1.15,2013-12-03 06:59:00,
2013-12-03 02:00:00,37.5,36.2,29.91,ENE,57,0.0,1.0,95,0.00,,,0.00,Wunderground v.1.15,2013-12-03 07:00:00,
2013-12-03 02:01:00,37.8,36.5,29.91,ENE,57,0.0,1.0,95,0.00,,,0.00,Wunderground v.1.15,2013-12-03 07:01:00,
2013-12-03 02:02:00,37.8,36.5,29.91,ENE,57,0.0,1.0,95,0.00,,,0.00,Wunderground v.1.15,2013-12-03 07:02:00,
2013-12-03 02:03:00,37.8,36.5,29.91,ENE,57,0.0,1.0,95,0.00,,,0.00,Wunderground v.1.15,2013-12-03 07:03:00,
2013-12-03 02:05:00,37.8,36.5,29.91,ENE,57,0.0,1.0,95,0.00,,,0.00,Wunderground v.1.15,2013-12-03 07:05:00,
2013-12-03 02:06:00,37.8,36.5,29.91,ENE,57,0.0,1.0,95,0.00,,,0.00,Wunderground v.1.15,2013-12-03 07:06:00,
2013-12-03 02:07:00,37.8,36.5,29.91,ENE,57,0.0,1.0,95,0.00,,,0.00,Wunderground v.1.15,2013-12-03 07:07:00,
2013-12-03 02:09:00,37.8,36.5,29.91,ENE,57,0.0,1.0,95,0.00,,,0.00,Wunderground v.1.15,2013-12-03 07:09:00,
2013-12-03 02:10:00,37.8,36.5,29.91,ENE,57,0.0,0.0,95,0.00,,,0.00,Wunderground v.1.15,2013-12-03 07:10:00,
2013-12-03 02:11:00,-999.9,-99.9,29.91,North,32767,-999.0,0.0,255,-99.99,,,0.00,Wunderground v.1.15,2013-12-03 07:11:00,
2013-12-03 02:12:00,-999.9,-99.9,29.91,North,32767,-999.0,0.0,255,-99.99,,,0.00,Wunderground v.1.15,2013-12-03 07:12:00,
2013-12-03 02:14:00,-999.9,-99.9,29.91,North,32767,-999.0,0.0,255,-99.99,,,0.00,Wunderground v.1.15,2013-12-03 07:14:00,
2013-12-03 02:15:00,-999.9,-99.9,29.91,North,32767,-999.0,0.0,255,-99.99,,,0.00,Wunderground v.1.15,2013-12-03 07:15:00,
2013-12-03 02:16:00,-999.9,-99.9,29.91,North,32767,-999.0,0.0,255,-99.99,,,0.00,Wunderground v.1.15,2013-12-03 07:16:00,
2013-12-03 02:17:00,-999.9,-99.9,29.91,North,32767,-999.0,0.0,255,-99.99,,,0.00,Wunderground v.1.15,2013-12-03 07:17:00,
2013-12-03 02:18:00,-999.9,-99.9,29.91,North,32767,-999.0,0.0,255,-99.99,,,0.00,Wunderground v.1.15,2013-12-03 07:18:00,
2013-12-03 02:19:00,-999.9,-99.9,29.91,North,32767,-999.0,-999.0,255,-99.99,,,0.00,Wunderground v.1.15,2013-12-03 07:19:00,
2013-12-03 02:21:00,-999.9,-99.9,29.91,North,32767,-999.0,-999.0,255,-99.99,,,0.00,Wunderground v.1.15,2013-12-03 07:21:00,
2013-12-03 02:22:00,-999.9,-99.9,29.91,North,32767,-999.0,-999.0,255,-99.99,,,0.00,Wunderground v.1.15,2013-12-03 07:22:00,
2013-12-03 02:23:00,-999.9,-99.9,29.91,North,32767,-999.0,-999.0,255,-99.99,,,0.00,Wunderground v.1.15,2013-12-03 07:23:00,
2013-12-03 02:25:00,-999.9,-99.9,29.91,North,32767,-999.0,-999.0,255,-99.99,,,0.00,Wunderground v.1.15,2013-12-03 07:25:00,
2013-12-03 02:26:00,-999.9,-99.9,29.91,North,32767,-999.0,-999.0,255,-99.99,,,0.00,Wunderground v.1.15,2013-12-03 07:26:00,
2013-12-03 02:27:00,-999.9,-99.9,29.91,North,32767,-999.0,-999.0,255,-99.99,,,0.00,Wunderground v.1.15,2013-12-03 07:27:00,
2013-12-03 02:28:00,-999.9,-99.9,29.91,North,32767,-999.0,-999.0,255,-99.99,,,0.00,Wunderground v.1.15,2013-12-03 07:28:00,
2013-12-03 02:29:00,-999.9,-99.9,29.91,North,32767,-999.0,-999.0,255,-99.99,,,0.00,Wunderground v.1.15,2013-12-03 07:29:00,
2013-12-03 02:30:00,-999.9,-99.9,29.91,North,32767,-999.0,-999.0,255,-99.99,,,0.00,Wunderground v.1.15,2013-12-03 07:30:00,
2013-12-03 02:31:00,-999.9,-99.9,29.91,North,32767,-999.0,-999.0,255,-99.99,,,0.00,Wunderground v.1.15,2013-12-03 07:31:00,
2013-12-03 02:32:00,-999.9,-99.9,29.91,North,32767,-999.0,-999.0,255,-99.99,,,0.00,Wunderground v.1.15,2013-12-03 07:32:00,
2013-12-03 02:33:00,-999.9,-99.9,29.91,North,32767,-999.0,-999.0,255,-99.99,,,0.00,Wunderground v.1.15,2013-12-03 07:33:00,
2013-12-03 02:34:00,-999.9,-99.9,29.91,North,32767,-999.0,-999.0,255,-99.99,,,0.00,Wunderground v.1.15,2013-12-03 07:34:00,
2013-12-03 02:35:00,-999.9,-99.9,29.91,North,32767,-999.0,-999.0,255,-99.99,,,0.00,Wunderground v.1.15,2013-12-03 07:35:00,
2013-12-03 02:36:00,-999.9,-99.9,29.91,North,32767,-999.0,-999.0,255,-99.99,,,0.00,Wunderground v.1.15,2013-12-03 07:36:00,
2013-12-03 02:37:00,-999.9,-99.9,29.92,North,32767,-999.0,-999.0,255,-99.99,,,0.00,Wunderground v.1.15,2013-12-03 07:37:00,
2013-12-03 02:38:00,-999.9,-99.9,29.91,North,32767,-999.0,-999.0,255,-99.99,,,0.00,Wunderground v.1.15,2013-12-03 07:38:00,
2013-12-03 02:39:00,-999.9,-99.9,29.92,North,32767,-999.0,-999.0,255,-99.99,,,0.00,Wunderground v.1.15,2013-12-03 07:39:00,
2013-12-03 02:40:00,-999.9,-99.9,29.92,North,32767,-999.0,-999.0,255,-99.99,,,0.00,Wunderground v.1.15,2013-12-03 07:40:00,
2013-12-03 02:42:00,-999.9,-99.9,29.91,North,32767,-999.0,-999.0,255,-99.99,,,0.00,Wunderground v.1.15,2013-12-03 07:42:00,
2013-12-03 02:43:00,-999.9,-99.9,29.92,North,32767,-999.0,-999.0,255,-99.99,,,0.00,Wunderground v.1.15,2013-12-03 07:43:00,
2013-12-03 02:45:00,-999.9,-99.9,29.91,North,32767,-999.0,-999.0,255,-99.99,,,0.00,Wunderground v.1.15,2013-12-03 07:45:00,
2013-12-03 02:47:00,-999.9,-99.9,29.91,North,32767,-999.0,-999.0,255,-99.99,,,0.00,Wunderground v.1.15,2013-12-03 07:47:00,
2013-12-03 02:48:00,-999.9,-99.9,29.91,North,32767,-999.0,-999.0,255,-99.99,,,0.00,Wunderground v.1.15,2013-12-03 07:48:00,
2013-12-03 02:49:00,-999.9,-99.9,29.91,North,32767,-999.0,-999.0,255,-99.99,,,0.00,Wunderground v.1.15,2013-12-03 07:49:00,
2013-12-03 02:50:00,-999.9,-99.9,29.91,North,32767,-999.0,-999.0,255,-99.99,,,0.00,Wunderground v.1.15,2013-12-03 07:50:00,
2013-12-03 02:51:00,-999.9,-99.9,29.91,North,32767,-999.0,-999.0,255,-99.99,,,0.00,Wunderground v.1.15,2013-12-03 07:51:00,
2013-12-03 02:52:00,-999.9,-99.9,29.91,North,32767,-999.0,-999.0,255,-99.99,,,0.00,Wunderground v.1.15,2013-12-03 07:52:00,
2013-12-03 02:53:00,-999.9,-99.9,29.91,North,32767,-999.0,-999.0,255,-99.99,,,0.00,Wunderground v.1.15,2013-12-03 07:53:00,
2013-12-03 02:54:00,-999.9,-99.9,29.91,North,32767,-999.0,-999.0,255,-99.99,,,0.00,Wunderground v.1.15,2013-12-03 07:54:00,
2013-12-03 02:56:00,-999.9,-99.9,29.91,North,32767,-999.0,-999.0,255,-99.99,,,0.00,Wunderground v.1.15,2013-12-03 07:56:00,
2013-12-03 02:58:00,-999.9,-99.9,29.91,North,32767,-999.0,-999.0,255,-99.99,,,0.00,Wunderground v.1.15,2013-12-03 07:58:00,
2013-12-03 03:00:00,-999.9,-99.9,29.91,North,32767,-999.0,-999.0,255,-99.99,,,0.00,Wunderground v.1.15,2013-12-03 08:00:00,
2013-12-03 03:01:00,-999.9,-99.9,29.91,North,32767,-999.0,-999.0,255,-99.99,,,0.00,Wunderground v.1.15,2013-12-03 08:01:00,
2013-12-03 03:03:00,-999.9,-99.9,29.91,North,32767,-999.0,-999.0,255,-99.99,,,0.00,Wunderground v.1.15,2013-12-03 08:03:00,
2013-12-03 03:04:00,-999.9,-99.9,29.91,North,32767,-999.0,-999.0,255,-99.99,,,0.00,Wunderground v.1.15,2013-12-03 08:04:00,
2013-12-03 03:05:00,-999.9,-99.9,29.91,North,32767,-999.0,-999.0,255,-99.99,,,0.00,Wunderground v.1.15,2013-12-03 08:05:00,
2013-12-03 03:06:00,-999.9,-99.9,29.91,North,32767,-999.0,-999.0,255,-99.99,,,0.00,Wunderground v.1.15,2013-12-03 08:06:00,
2013-12-03 03:08:00,-999.9,-99.9,29.91,North,32767,-999.0,-999.0,255,-99.99,,,0.00,Wunderground v.1.15,2013-12-03 08:08:00,
2013-12-03 03:09:00,-999.9,-99.9,29.91,North,32767,-999.0,-999.0,255,-99.99,,,0.00,Wunderground v.1.15,2013-12-03 08:09:00,
2013-12-03 03:10:00,-999.9,-99.9,29.91,North,32767,-999.0,-999.0,255,-99.99,,,0.00,Wunderground v.1.15,2013-12-03 08:10:00,
2013-12-03 03:11:00,-999.9,-99.9,29.91,North,32767,-999.0,-999.0,255,-99.99,,,0.00,Wunderground v.1.15,2013-12-03 08:11:00,
2013-12-03 03:12:00,-999.9,-99.9,29.91,North,32767,-999.0,-999.0,255,-99.99,,,0.00,Wunderground v.1.15,2013-12-03 08:12:00,
2013-12-03 03:13:00,-999.9,-99.9,29.91,North,32767,-999.0,-999.0,255,-99.99,,,0.00,Wunderground v.1.15,2013-12-03 08:13:00,
2013-12-03 03:14:00,-999.9,-99.9,29.91,North,32767,-999.0,-999.0,255,-99.99,,,0.00,Wunderground v.1.15,2013-12-03 08:14:00,
2013-12-03 03:15:00,-999.9,-99.9,29.91,North,32767,-999.0,-999.0,255,-99.99,,,0.00,Wunderground v.1.15,2013-12-03 08:15:00,
2013-12-03 03:16:00,-999.9,-99.9,29.91,North,32767,-999.0,-999.0,255,-99.99,,,0.00,Wunderground v.1.15,2013-12-03 08:16:00,
2013-12-03 03:17:00,-999.9,-99.9,29.91,North,32767,-999.0,-999.0,255,-99.99,,,0.00,Wunderground v.1.15,2013-12-03 08:17:00,
2013-12-03 03:18:00,-999.9,-99.9,29.91,North,32767,-999.0,-999.0,255,-99.99,,,0.00,Wunderground v.1.15,2013-12-03 08:18:00,
2013-12-03 03:19:00,-999.9,-99.9,29.91,North,32767,-999.0,-999.0,255,-99.99,,,0.00,Wunderground v.1.15,2013-12-03 08:19:00,
2013-12-03 03:20:00,-999.9,-99.9,29.91,North,32767,-999.0,-999.0,255,-99.99,,,0.00,Wunderground v.1.15,2013-12-03 08:20:00,
2013-12-03 03:22:00,-999.9,-99.9,29.91,North,32767,-999.0,-999.0,255,-99.99,,,0.00,Wunderground v.1.15,2013-12-03 08:22:00,
2013-12-03 03:23:00,-999.9,-99.9,29.91,North,32767,-999.0,-999.0,255,-99.99,,,0.00,Wunderground v.1.15,2013-12-03 08:23:00,
2013-12-03 03:25:00,-999.9,-99.9,29.91,North,32767,-999.0,-999.0,255,-99.99,,,0.00,Wunderground v.1.15,2013-12-03 08:25:00,
2013-12-03 03:27:00,-999.9,-99.9,29.91,North,32767,-999.0,-999.0,255,-99.99,,,0.00,Wunderground v.1.15,2013-12-03 08:27:00,
2013-12-03 03:28:00,-999.9,-99.9,29.91,North,32767,-999.0,-999.0,255,-99.99,,,0.00,Wunderground v.1.15,2013-12-03 08:28:00,
2013-12-03 03:30:00,-999.9,-99.9,29.91,North,32767,-999.0,-999.0,255,-99.99,,,0.00,Wunderground v.1.15,2013-12-03 08:30:00,
2013-12-03 03:31:00,-999.9,-99.9,29.91,North,32767,-999.0,-999.0,255,-99.99,,,0.00,Wunderground v.1.15,2013-12-03 08:31:00,
2013-12-03 03:32:00,-999.9,-99.9,29.91,North,32767,-999.0,-999.0,255,-99.99,,,0.00,Wunderground v.1.15,2013-12-03 08:32:00,
2013-12-03 03:33:00,-999.9,-99.9,29.91,North,32767,-999.0,-999.0,255,-99.99,,,0.00,Wunderground v.1.15,2013-12-03 08:33:00,
2013-12-03 03:34:00,-999.9,-99.9,29.91,North,32767,-999.0,-999.0,255,-99.99,,,0.00,Wunderground v.1.15,2013-12-03 08:34:00,
2013-12-03 03:35:00,-999.9,-99.9,29.91,North,32767,-999.0,-999.0,255,-99.99,,,0.00,Wunderground v.1.15,2013-12-03 08:35:00,
2013-12-03 03:36:00,-999.9,-99.9,29.91,North,32767,-999.0,-999.0,255,-99.99,,,0.00,Wunderground v.1.15,2013-12-03 08:36:00,
2013-12-03 03:38:00,-999.9,-99.9,29.91,North,32767,-999.0,-999.0,255,-99.99,,,0.00,Wunderground v.1.15,2013-12-03 08:38:00,
2013-12-03 03:40:00,-999.9,-99.9,29.90,North,32767,-999.0,-999.0,255,-99.99,,,0.00,Wunderground v.1.15,2013-12-03 08:40:00,
2013-12-03 03:42:00,-999.9,-99.9,29.90,North,32767,-999.0,-999.0,255,-99.99,,,0.00,Wunderground v.1.15,2013-12-03 08:42:00,
2013-12-03 03:43:00,-999.9,-99.9,29.90,North,32767,-999.0,-999.0,255,-99.99,,,0.00,Wunderground v.1.15,2013-12-03 08:43:00,
2013-12-03 03:45:00,-999.9,-99.9,29.90,North,32767,-999.0,-999.0,255,-99.99,,,0.00,Wunderground v.1.15,2013-12-03 08:45:00,
2013-12-03 03:48:00,-999.9,-99.9,29.90,North,32767,-999.0,-999.0,255,-99.99,,,0.00,Wunderground v.1.15,2013-12-03 08:48:00,
2013-12-03 03:50:00,-999.9,-99.9,29.90,North,32767,-999.0,-999.0,255,-99.99,,,0.00,Wunderground v.1.15,2013-12-03 08:50:00,
2013-12-03 03:53:00,-999.9,-99.9,29.90,North,32767,-999.0,-999.0,255,-99.99,,,0.00,Wunderground v.1.15,2013-12-03 08:53:00,
2013-12-03 03:55:00,-999.9,-99.9,29.91,North,32767,-999.0,-999.0,255,-99.99,,,0.00,Wunderground v.1.15,2013-12-03 08:55:00,
2013-12-03 03:56:00,-999.9,-99.9,29.91,North,32767,-999.0,-999.0,255,-99.99,,,0.00,Wunderground v.1.15,2013-12-03 08:56:00,
2013-12-03 03:58:00,-999.9,-99.9,29.91,North,32767,-999.0,-999.0,255,-99.99,,,0.00,Wunderground v.1.15,2013-12-03 08:58:00,
2013-12-03 03:59:00,-999.9,-99.9,29.91,North,32767,-999.0,-999.0,255,-99.99,,,0.00,Wunderground v.1.15,2013-12-03 08:59:00,
2013-12-03 04:00:00,-999.9,-99.9,29.91,North,32767,-999.0,-999.0,255,-99.99,,,0.00,Wunderground v.1.15,2013-12-03 09:00:00,
2013-12-03 04:01:00,-999.9,-99.9,29.91,North,32767,-999.0,-999.0,255,-99.99,,,0.00,Wunderground v.1.15,2013-12-03 09:01:00,
2013-12-03 04:03:00,-999.9,-99.9,29.91,North,32767,-999.0,-999.0,255,-99.99,,,0.00,Wunderground v.1.15,2013-12-03 09:03:00,
2013-12-03 04:04:00,-999.9,-99.9,29.91,North,32767,-999.0,-999.0,255,-99.99,,,0.00,Wunderground v.1.15,2013-12-03 09:04:00,
2013-12-03 04:05:00,-999.9,-99.9,29.91,North,32767,-999.0,-999.0,255,-99.99,,,0.00,Wunderground v.1.15,2013-12-03 09:05:00,
2013-12-03 04:06:00,-999.9,-99.9,29.91,North,32767,-999.0,-999.0,255,-99.99,,,0.00,Wunderground v.1.15,2013-12-03 09:06:00,
2013-12-03 04:08:00,-999.9,-99.9,29.91,North,32767,-999.0,-999.0,255,-99.99,,,0.00,Wunderground v.1.15,2013-12-03 09:08:00,
2013-12-03 04:09:00,-999.9,-99.9,29.91,North,32767,-999.0,-999.0,255,-99.99,,,0.00,Wunderground v.1.15,2013-12-03 09:09:00,
2013-12-03 04:10:00,-999.9,-99.9,29.91,North,32767,-999.0,-999.0,255,-99.99,,,0.00,Wunderground v.1.15,2013-12-03 09:10:00,
2013-12-03 04:12:00,-999.9,-99.9,29.91,North,32767,-999.0,-999.0,255,-99.99,,,0.00,Wunderground v.1.15,2013-12-03 09:12:00,
2013-12-03 04:14:00,-999.9,-99.9,29.91,North,32767,-999.0,-999.0,255,-99.99,,,0.00,Wunderground v.1.15,2013-12-03 09:14:00,
2013-12-03 04:15:00,-999.9,-99.9,29.91,North,32767,-999.0,-999.0,255,-99.99,,,0.00,Wunderground v.1.15,2013-12-03 09:15:00,
2013-12-03 04:17:00,-999.9,-99.9,29.91,North,32767,-999.0,-999.0,255,-99.99,,,0.00,Wunderground v.1.15,2013-12-03 09:17:00,
2013-12-03 04:19:00,-999.9,-99.9,29.91,North,32767,-999.0,-999.0,255,-99.99,,,0.00,Wunderground v.1.15,2013-12-03 09:19:00,
2013-12-03 04:20:00,-999.9,-99.9,29.90,North,32767,-999.0,-999.0,255,-99.99,,,0.00,Wunderground v.1.15,2013-12-03 09:20:00,
2013-12-03 04:22:00,-999.9,-99.9,29.91,North,32767,-999.0,-999.0,255,-99.99,,,0.00,Wunderground v.1.15,2013-12-03 09:22:00,
2013-12-03 04:24:00,-999.9,-99.9,29.90,North,32767,-999.0,-999.0,255,-99.99,,,0.00,Wunderground v.1.15,2013-12-03 09:24:00,
2013-12-03 04:25:00,-999.9,-99.9,29.91,North,32767,-999.0,-999.0,255,-99.99,,,0.00,Wunderground v.1.15,2013-12-03 09:25:00,
2013-12-03 04:26:00,-999.9,-99.9,29.90,North,32767,-999.0,-999.0,255,-99.99,,,0.00,Wunderground v.1.15,2013-12-03 09:26:00,
2013-12-03 04:27:00,-999.9,-99.9,29.90,North,32767,-999.0,-999.0,255,-99.99,,,0.00,Wunderground v.1.15,2013-12-03 09:27:00,
2013-12-03 04:29:00,-999.9,-99.9,29.90,North,32767,-999.0,-999.0,255,-99.99,,,0.00,Wunderground v.1.15,2013-12-03 09:29:00,
2013-12-03 04:30:00,-999.9,-99.9,29.90,North,32767,-999.0,-999.0,255,-99.99,,,0.00,Wunderground v.1.15,2013-12-03 09:30:00,
2013-12-03 04:31:00,-999.9,-99.9,29.90,North,32767,-999.0,-999.0,255,-99.99,,,0.00,Wunderground v.1.15,2013-12-03 09:31:00,
2013-12-03 04:33:00,-999.9,-99.9,29.90,North,32767,-999.0,-999.0,255,-99.99,,,0.00,Wunderground v.1.15,2013-12-03 09:33:00,
2013-12-03 04:34:00,-999.9,-99.9,29.90,North,32767,-999.0,-999.0,255,-99.99,,,0.00,Wunderground v.1.15,2013-12-03 09:34:00,
2013-12-03 04:35:00,-999.9,-99.9,29.90,North,32767,-999.0,-999.0,255,-99.99,,,0.00,Wunderground v.1.15,2013-12-03 09:35:00,
2013-12-03 04:36:00,-999.9,-99.9,29.90,North,32767,-999.0,-999.0,255,-99.99,,,0.00,Wunderground v.1.15,2013-12-03 09:36:00,
2013-12-03 04:38:00,-999.9,-99.9,29.90,North,32767,-999.0,-999.0,255,-99.99,,,0.00,Wunderground v.1.15,2013-12-03 09:38:00,
2013-12-03 04:39:00,-999.9,-99.9,29.90,North,32767,-999.0,-999.0,255,-99.99,,,0.00,Wunderground v.1.15,2013-12-03 09:39:00,
2013-12-03 04:40:00,-999.9,-99.9,29.90,North,32767,-999.0,-999.0,255,-99.99,,,0.00,Wunderground v.1.15,2013-12-03 09:40:00,
2013-12-03 04:41:00,-999.9,-99.9,29.90,North,32767,-999.0,-999.0,255,-99.99,,,0.00,Wunderground v.1.15,2013-12-03 09:41:00,
2013-12-03 04:42:00,-999.9,-99.9,29.90,North,32767,-999.0,-999.0,255,-99.99,,,0.00,Wunderground v.1.15,2013-12-03 09:42:00,
2013-12-03 04:43:00,-999.9,-99.9,29.90,North,32767,-999.0,-999.0,255,-99.99,,,0.00,Wunderground v.1.15,2013-12-03 09:43:00,
2013-12-03 04:45:00,-999.9,-99.9,29.90,North,32767,-999.0,-999.0,255,-99.99,,,0.00,Wunderground v.1.15,2013-12-03 09:45:00,
2013-12-03 04:46:00,-999.9,-99.9,29.90,North,32767,-999.0,-999.0,255,-99.99,,,0.00,Wunderground v.1.15,2013-12-03 09:46:00,
2013-12-03 04:47:00,-999.9,-99.9,29.90,North,32767,-999.0,-999.0,255,-99.99,,,0.00,Wunderground v.1.15,2013-12-03 09:47:00,
2013-12-03 04:48:00,-999.9,-99.9,29.90,North,32767,-999.0,-999.0,255,-99.99,,,0.00,Wunderground v.1.15,2013-12-03 09:48:00,
2013-12-03 04:50:00,-999.9,-99.9,29.90,North,32767,-999.0,-999.0,255,-99.99,,,0.00,Wunderground v.1.15,2013-12-03 09:50:00,
2013-12-03 04:51:00,-999.9,-99.9,29.90,North,32767,-999.0,-999.0,255,-99.99,,,0.00,Wunderground v.1.15,2013-12-03 09:51:00,
2013-12-03 04:52:00,-999.9,-99.9,29.90,North,32767,-999.0,-999.0,255,-99.99,,,0.00,Wunderground v.1.15,2013-12-03 09:52:00,
2013-12-03 04:53:00,-999.9,-99.9,29.90,North,32767,-999.0,-999.0,255,-99.99,,,0.00,Wunderground v.1.15,2013-12-03 09:53:00,
2013-12-03 04:55:00,-999.9,-99.9,29.90,North,32767,-999.0,-999.0,255,-99.99,,,0.00,Wunderground v.1.15,2013-12-03 09:55:00,
2013-12-03 04:56:00,-999.9,-99.9,29.90,North,32767,-999.0,-999.0,255,-99.99,,,0.00,Wunderground v.1.15,2013-12-03 09:56:00,
2013-12-03 04:57:00,-999.9,-99.9,29.90,North,32767,-999.0,-999.0,255,-99.99,,,0.00,Wunderground v.1.15,2013-12-03 09:57:00,
2013-12-03 04:58:00,-999.9,-99.9,29.90,North,32767,-999.0,-999.0,255,-99.99,,,0.00,Wunderground v.1.15,2013-12-03 09:58:00,
2013-12-03 05:00:00,-999.9,-99.9,29.90,North,32767,-999.0,-999.0,255,-99.99,,,0.00,Wunderground v.1.15,2013-12-03 10:00:00,
2013-12-03 05:01:00,-999.9,-99.9,29.90,North,32767,-999.0,-999.0,255,-99.99,,,0.00,Wunderground v.1.15,2013-12-03 10:01:00,
2013-12-03 05:02:00,-999.9,-99.9,29.90,North,32767,-999.0,-999.0,255,-99.99,,,0.00,Wunderground v.1.15,2013-12-03 10:02:00,
2013-12-03 05:03:00,-999.9,-99.9,29.90,North,32767,-999.0,-999.0,255,-99.99,,,0.00,Wunderground v.1.15,2013-12-03 10:03:00,
2013-12-03 05:06:00,-999.9,-99.9,29.89,North,32767,-999.0,-999.0,255,-99.99,,,0.00,Wunderground v.1.15,2013-12-03 10:06:00,
2013-12-03 05:07:00,-999.9,-99.9,29.90,North,32767,-999.0,-999.0,255,-99.99,,,0.00,Wunderground v.1.15,2013-12-03 10:07:00,
2013-12-03 05:08:00,-999.9,-99.9,29.89,North,32767,-999.0,-999.0,255,-99.99,,,0.00,Wunderground v.1.15,2013-12-03 10:08:00,
2013-12-03 05:11:00,-999.9,-99.9,29.90,North,32767,-999.0,-999.0,255,-99.99,,,0.00,Wunderground v.1.15,2013-12-03 10:11:00,
2013-12-03 05:13:00,-999.9,-99.9,29.90,North,32767,-999.0,-999.0,255,-99.99,,,0.00,Wunderground v.1.15,2013-12-03 10:13:00,
2013-12-03 05:14:00,-999.9,-99.9,29.89,North,32767,-999.0,-999.0,255,-99.99,,,0.00,Wunderground v.1.15,2013-12-03 10:14:00,
2013-12-03 05:16:00,-999.9,-99.9,29.90,North,32767,-999.0,-999.0,255,-99.99,,,0.00,Wunderground v.1.15,2013-12-03 10:16:00,
2013-12-03 05:18:00,-999.9,-99.9,29.89,North,32767,-999.0,-999.0,255,-99.99,,,0.00,Wunderground v.1.15,2013-12-03 10:18:00,
2013-12-03 05:19:00,-999.9,-99.9,29.89,North,32767,-999.0,-999.0,255,-99.99,,,0.00,Wunderground v.1.15,2013-12-03 10:19:00,
2013-12-03 05:21:00,-999.9,-99.9,29.89,North,32767,-999.0,-999.0,255,-99.99,,,0.00,Wunderground v.1.15,2013-12-03 10:21:00,
2013-12-03 05:24:00,-999.9,-99.9,29.89,North,32767,-999.0,-999.0,255,-99.99,,,0.00,Wunderground v.1.15,2013-12-03 10:24:00,
2013-12-03 05:25:00,-999.9,-99.9,29.90,North,32767,-999.0,-999.0,255,-99.99,,,0.00,Wunderground v.1.15,2013-12-03 10:25:00,
2013-12-03 05:26:00,-999.9,-99.9,29.89,North,32767,-999.0,-999.0,255,-99.99,,,0.00,Wunderground v.1.15,2013-12-03 10:26:00,
2013-12-03 05:28:00,-999.9,-99.9,29.89,North,32767,-999.0,-999.0,255,-99.99,,,0.00,Wunderground v.1.15,2013-12-03 10:28:00,
2013-12-03 05:29:00,-999.9,-99.9,29.89,North,32767,-999.0,-999.0,255,-99.99,,,0.00,Wunderground v.1.15,2013-12-03 10:29:00,
2013-12-03 05:30:00,-999.9,-99.9,29.89,North,32767,-999.0,-999.0,255,-99.99,,,0.00,Wunderground v.1.15,2013-12-03 10:30:00,
2013-12-03 05:31:00,-999.9,-99.9,29.89,North,32767,-999.0,-999.0,255,-99.99,,,0.00,Wunderground v.1.15,2013-12-03 10:31:00,
2013-12-03 05:33:00,-999.9,-99.9,29.89,North,32767,-999.0,-999.0,255,-99.99,,,0.00,Wunderground v.1.15,2013-12-03 10:33:00,
2013-12-03 05:34:00,-999.9,-99.9,29.90,North,32767,-999.0,-999.0,255,-99.99,,,0.00,Wunderground v.1.15,2013-12-03 10:34:00,
2013-12-03 05:35:00,-999.9,-99.9,29.90,North,32767,-999.0,-999.0,255,-99.99,,,0.00,Wunderground v.1.15,2013-12-03 10:35:00,
2013-12-03 05:36:00,-999.9,-99.9,29.90,North,32767,-999.0,-999.0,255,-99.99,,,0.00,Wunderground v.1.15,2013-12-03 10:36:00,
2013-12-03 05:38:00,-999.9,-99.9,29.90,North,32767,-999.0,-999.0,255,-99.99,,,0.00,Wunderground v.1.15,2013-12-03 10:38:00,
2013-12-03 05:39:00,-999.9,-99.9,29.90,North,32767,-999.0,-999.0,255,-99.99,,,0.00,Wunderground v.1.15,2013-12-03 10:39:00,
2013-12-03 05:40:00,-999.9,-99.9,29.90,North,32767,-999.0,-999.0,255,-99.99,,,0.00,Wunderground v.1.15,2013-12-03 10:40:00,
2013-12-03 05:41:00,-999.9,-99.9,29.90,North,32767,-999.0,-999.0,255,-99.99,,,0.00,Wunderground v.1.15,2013-12-03 10:41:00,
2013-12-03 05:43:00,-999.9,-99.9,29.90,North,32767,-999.0,-999.0,255,-99.99,,,0.00,Wunderground v.1.15,2013-12-03 10:43:00,
2013-12-03 05:44:00,-999.9,-99.9,29.90,North,32767,-999.0,-999.0,255,-99.99,,,0.00,Wunderground v.1.15,2013-12-03 10:44:00,
2013-12-03 05:45:00,-999.9,-99.9,29.90,North,32767,-999.0,-999.0,255,-99.99,,,0.00,Wunderground v.1.15,2013-12-03 10:45:00,
2013-12-03 05:47:00,-999.9,-99.9,29.90,North,32767,-999.0,-999.0,255,-99.99,,,0.00,Wunderground v.1.15,2013-12-03 10:47:00,
2013-12-03 05:48:00,-999.9,-99.9,29.90,North,32767,-999.0,-999.0,255,-99.99,,,0.00,Wunderground v.1.15,2013-12-03 10:48:00,
2013-12-03 05:49:00,-999.9,-99.9,29.90,North,32767,-999.0,-999.0,255,-99.99,,,0.00,Wunderground v.1.15,2013-12-03 10:49:00,
2013-12-03 05:51:00,-999.9,-99.9,29.90,North,32767,-999.0,-999.0,255,-99.99,,,0.00,Wunderground v.1.15,2013-12-03 10:51:00,
2013-12-03 05:52:00,-999.9,-99.9,29.90,North,32767,-999.0,-999.0,255,-99.99,,,0.00,Wunderground v.1.15,2013-12-03 10:52:00,
2013-12-03 05:54:00,-999.9,-99.9,29.90,North,32767,-999.0,-999.0,255,-99.99,,,0.00,Wunderground v.1.15,2013-12-03 10:54:00,
2013-12-03 05:55:00,-999.9,-99.9,29.89,North,32767,-999.0,-999.0,255,-99.99,,,0.00,Wunderground v.1.15,2013-12-03 10:55:00,
2013-12-03 05:56:00,-999.9,-99.9,29.89,North,32767,-999.0,-999.0,255,-99.99,,,0.00,Wunderground v.1.15,2013-12-03 10:56:00,
2013-12-03 05:57:00,-999.9,-99.9,29.89,North,32767,-999.0,-999.0,255,-99.99,,,0.00,Wunderground v.1.15,2013-12-03 10:57:00,
2013-12-03 05:59:00,-999.9,-99.9,29.89,North,32767,-999.0,-999.0,255,-99.99,,,0.00,Wunderground v.1.15,2013-12-03 10:59:00,
2013-12-03 06:00:00,-999.9,-99.9,29.89,North,32767,-999.0,-999.0,255,-99.99,,,0.00,Wunderground v.1.15,2013-12-03 11:00:00,
2013-12-03 06:01:00,-999.9,-99.9,29.89,North,32767,-999.0,-999.0,255,-99.99,,,0.00,Wunderground v.1.15,2013-12-03 11:01:00,
2013-12-03 06:02:00,-999.9,-99.9,29.90,North,32767,-999.0,-999.0,255,-99.99,,,0.00,Wunderground v.1.15,2013-12-03 11:02:00,
2013-12-03 06:03:00,-999.9,-99.9,29.90,North,32767,-999.0,-999.0,255,-99.99,,,0.00,Wunderground v.1.15,2013-12-03 11:03:00,
2013-12-03 06:04:00,-999.9,-99.9,29.90,North,32767,-999.0,-999.0,255,-99.99,,,0.00,Wunderground v.1.15,2013-12-03 11:04:00,
2013-12-03 06:05:00,-999.9,-99.9,29.90,North,32767,-999.0,-999.0,255,-99.99,,,0.00,Wunderground v.1.15,2013-12-03 11:05:00,
2013-12-03 06:06:00,-999.9,-99.9,29.90,North,32767,-999.0,-999.0,255,-99.99,,,0.00,Wunderground v.1.15,2013-12-03 11:06:00,
2013-12-03 06:08:00,-999.9,-99.9,29.90,North,32767,-999.0,-999.0,255,-99.99,,,0.00,Wunderground v.1.15,2013-12-03 11:08:00,
2013-12-03 06:09:00,-999.9,-99.9,29.90,North,32767,-999.0,-999.0,255,-99.99,,,0.00,Wunderground v.1.15,2013-12-03 11:09:00,
2013-12-03 06:10:00,-999.9,-99.9,29.90,North,32767,-999.0,-999.0,255,-99.99,,,0.00,Wunderground v.1.15,2013-12-03 11:10:00,
2013-12-03 06:11:00,-999.9,-99.9,29.90,North,32767,-999.0,-999.0,255,-99.99,,,0.00,Wunderground v.1.15,2013-12-03 11:11:00,
2013-12-03 06:13:00,-999.9,-99.9,29.90,North,32767,-999.0,-999.0,255,-99.99,,,0.00,Wunderground v.1.15,2013-12-03 11:13:00,
2013-12-03 06:14:00,-999.9,-99.9,29.90,North,32767,-999.0,-999.0,255,-99.99,,,0.00,Wunderground v.1.15,2013-12-03 11:14:00,
2013-12-03 06:16:00,-999.9,-99.9,29.90,North,32767,-999.0,-999.0,255,-99.99,,,0.00,Wunderground v.1.15,2013-12-03 11:16:00,
2013-12-03 06:17:00,-999.9,-99.9,29.90,North,32767,-999.0,-999.0,255,-99.99,,,0.00,Wunderground v.1.15,2013-12-03 11:17:00,
2013-12-03 06:18:00,-999.9,-99.9,29.90,North,32767,-999.0,-999.0,255,-99.99,,,0.00,Wunderground v.1.15,2013-12-03 11:18:00,
2013-12-03 06:20:00,-999.9,-99.9,29.90,North,32767,-999.0,-999.0,255,-99.99,,,0.00,Wunderground v.1.15,2013-12-03 11:20:00,
2013-12-03 06:21:00,-999.9,-99.9,29.90,North,32767,-999.0,-999.0,255,-99.99,,,0.00,Wunderground v.1.15,2013-12-03 11:21:00,
2013-12-03 06:22:00,-999.9,-99.9,29.90,North,32767,-999.0,-999.0,255,-99.99,,,0.00,Wunderground v.1.15,2013-12-03 11:22:00,
2013-12-03 06:23:00,-999.9,-99.9,29.90,North,32767,-999.0,-999.0,255,-99.99,,,0.00,Wunderground v.1.15,2013-12-03 11:23:00,
2013-12-03 06:24:00,-999.9,-99.9,29.90,North,32767,-999.0,-999.0,255,-99.99,,,0.00,Wunderground v.1.15,2013-12-03 11:24:00,
2013-12-03 06:25:00,-999.9,-99.9,29.90,North,32767,-999.0,-999.0,255,-99.99,,,0.00,Wunderground v.1.15,2013-12-03 11:25:00,
2013-12-03 06:26:00,-999.9,-99.9,29.90,North,32767,-999.0,-999.0,255,-99.99,,,0.00,Wunderground v.1.15,2013-12-03 11:26:00,
2013-12-03 06:27:00,-999.9,-99.9,29.90,North,32767,-999.0,-999.0,255,-99.99,,,0.00,Wunderground v.1.15,2013-12-03 11:27:00,
2013-12-03 06:28:00,-999.9,-99.9,29.90,North,32767,-999.0,-999.0,255,-99.99,,,0.00,Wunderground v.1.15,2013-12-03 11:28:00,
2013-12-03 06:30:00,-999.9,-99.9,29.90,North,32767,-999.0,-999.0,255,-99.99,,,0.00,Wunderground v.1.15,2013-12-03 11:30:00,
2013-12-03 06:31:00,-999.9,-99.9,29.90,North,32767,-999.0,-999.0,255,-99.99,,,0.00,Wunderground v.1.15,2013-12-03 11:31:00,
2013-12-03 06:32:00,-999.9,-99.9,29.90,North,32767,-999.0,-999.0,255,-99.99,,,0.00,Wunderground v.1.15,2013-12-03 11:32:00,
2013-12-03 06:33:00,-999.9,-99.9,29.90,North,32767,-999.0,-999.0,255,-99.99,,,0.00,Wunderground v.1.15,2013-12-03 11:33:00,
2013-12-03 06:34:00,-999.9,-99.9,29.90,North,32767,-999.0,-999.0,255,-99.99,,,0.00,Wunderground v.1.15,2013-12-03 11:34:00,
2013-12-03 06:35:00,-999.9,-99.9,29.89,North,32767,-999.0,-999.0,255,-99.99,,,0.00,Wunderground v.1.15,2013-12-03 11:35:00,
2013-12-03 06:37:00,-999.9,-99.9,29.89,North,32767,-999.0,-999.0,255,-99.99,,,0.00,Wunderground v.1.15,2013-12-03 11:37:00,
2013-12-03 06:38:00,-999.9,-99.9,29.89,North,32767,-999.0,-999.0,255,-99.99,,,0.00,Wunderground v.1.15,2013-12-03 11:38:00,
2013-12-03 06:39:00,-999.9,-99.9,29.89,North,32767,-999.0,-999.0,255,-99.99,,,0.00,Wunderground v.1.15,2013-12-03 11:39:00,
2013-12-03 06:40:00,-999.9,-99.9,29.89,North,32767,-999.0,-999.0,255,-99.99,,,0.00,Wunderground v.1.15,2013-12-03 11:40:00,
2013-12-03 06:42:00,-999.9,-99.9,29.89,North,32767,-999.0,-999.0,255,-99.99,,,0.00,Wunderground v.1.15,2013-12-03 11:42:00,
2013-12-03 06:43:00,-999.9,-99.9,29.89,North,32767,-999.0,-999.0,255,-99.99,,,0.00,Wunderground v.1.15,2013-12-03 11:43:00,
2013-12-03 06:44:00,-999.9,-99.9,29.89,North,32767,-999.0,-999.0,255,-99.99,,,0.00,Wunderground v.1.15,2013-12-03 11:44:00,
2013-12-03 06:45:00,-999.9,-99.9,29.89,North,32767,-999.0,-999.0,255,-99.99,,,0.00,Wunderground v.1.15,2013-12-03 11:45:00,
2013-12-03 06:46:00,-999.9,-99.9,29.89,North,32767,-999.0,-999.0,255,-99.99,,,0.00,Wunderground v.1.15,2013-12-03 11:46:00,
2013-12-03 06:49:00,-999.9,-99.9,29.89,North,32767,-999.0,-999.0,255,-99.99,,,0.00,Wunderground v.1.15,2013-12-03 11:49:00,
2013-12-03 06:51:00,-999.9,-99.9,29.89,North,32767,-999.0,-999.0,255,-99.99,,,0.00,Wunderground v.1.15,2013-12-03 11:51:00,
2013-12-03 06:54:00,-999.9,-99.9,29.89,North,32767,-999.0,-999.0,255,-99.99,,,0.00,Wunderground v.1.15,2013-12-03 11:54:00,
2013-12-03 06:56:00,-999.9,-99.9,29.89,North,32767,-999.0,-999.0,255,-99.99,,,0.00,Wunderground v.1.15,2013-12-03 11:56:00,
2013-12-03 06:59:00,-999.9,-99.9,29.89,North,32767,-999.0,-999.0,255,-99.99,,,0.00,Wunderground v.1.15,2013-12-03 11:59:00,
2013-12-03 07:00:00,-999.9,-99.9,29.89,North,32767,-999.0,-999.0,255,-99.99,,,0.00,Wunderground v.1.15,2013-12-03 12:00:00,
2013-12-03 07:01:00,-999.9,-99.9,29.89,North,32767,-999.0,-999.0,255,-99.99,,,0.00,Wunderground v.1.15,2013-12-03 12:01:00,
2013-12-03 07:04:00,-999.9,-99.9,29.89,North,32767,-999.0,-999.0,255,-99.99,,,0.00,Wunderground v.1.15,2013-12-03 12:04:00,
2013-12-03 07:05:00,-999.9,-99.9,29.90,North,32767,-999.0,-999.0,255,-99.99,,,0.00,Wunderground v.1.15,2013-12-03 12:05:00,
2013-12-03 07:06:00,-999.9,-99.9,29.89,North,32767,-999.0,-999.0,255,-99.99,,,0.00,Wunderground v.1.15,2013-12-03 12:06:00,
2013-12-03 07:09:00,-999.9,-99.9,29.90,North,32767,-999.0,-999.0,255,-99.99,,,0.00,Wunderground v.1.15,2013-12-03 12:09:00,
2013-12-03 07:10:00,-999.9,-99.9,29.90,North,32767,-999.0,-999.0,255,-99.99,,,0.00,Wunderground v.1.15,2013-12-03 12:10:00,
2013-12-03 07:11:00,-999.9,-99.9,29.89,North,32767,-999.0,-999.0,255,-99.99,,,0.00,Wunderground v.1.15,2013-12-03 12:11:00,
2013-12-03 07:12:00,-999.9,-99.9,29.89,North,32767,-999.0,-999.0,255,-99.99,,,0.00,Wunderground v.1.15,2013-12-03 12:12:00,
2013-12-03 07:14:00,-999.9,-99.9,29.89,North,32767,-999.0,-999.0,255,-99.99,,,0.00,Wunderground v.1.15,2013-12-03 12:14:00,
2013-12-03 07:15:00,-999.9,-99.9,29.89,North,32767,-999.0,-999.0,255,-99.99,,,0.00,Wunderground v.1.15,2013-12-03 12:15:00,
2013-12-03 07:16:00,-999.9,-99.9,29.89,North,32767,-999.0,-999.0,255,-99.99,,,0.00,Wunderground v.1.15,2013-12-03 12:16:00,
2013-12-03 07:17:00,-999.9,-99.9,29.89,North,32767,-999.0,-999.0,255,-99.99,,,0.00,Wunderground v.1.15,2013-12-03 12:17:00,
2013-12-03 07:19:00,-999.9,-99.9,29.89,North,32767,-999.0,-999.0,255,-99.99,,,0.00,Wunderground v.1.15,2013-12-03 12:19:00,
2013-12-03 07:20:00,-999.9,-99.9,29.89,North,32767,-999.0,-999.0,255,-99.99,,,0.00,Wunderground v.1.15,2013-12-03 12:20:00,
2013-12-03 07:21:00,-999.9,-99.9,29.89,North,32767,-999.0,-999.0,255,-99.99,,,0.00,Wunderground v.1.15,2013-12-03 12:21:00,
2013-12-03 07:22:00,-999.9,-99.9,29.89,North,32767,-999.0,-999.0,255,-99.99,,,0.00,Wunderground v.1.15,2013-12-03 12:22:00,
2013-12-03 07:24:00,-999.9,-99.9,29.90,North,32767,-999.0,-999.0,255,-99.99,,,0.00,Wunderground v.1.15,2013-12-03 12:24:00,
2013-12-03 07:26:00,-999.9,-99.9,29.90,North,32767,-999.0,-999.0,255,-99.99,,,0.00,Wunderground v.1.15,2013-12-03 12:26:00,
2013-12-03 07:27:00,-999.9,-99.9,29.90,North,32767,-999.0,-999.0,255,-99.99,,,0.00,Wunderground v.1.15,2013-12-03 12:27:00,
2013-12-03 07:30:00,-999.9,-99.9,29.90,North,32767,-999.0,-999.0,255,-99.99,,,0.00,Wunderground v.1.15,2013-12-03 12:30:00,
2013-12-03 07:31:00,-999.9,-99.9,29.90,North,32767,-999.0,-999.0,255,-99.99,,,0.00,Wunderground v.1.15,2013-12-03 12:31:00,
2013-12-03 07:32:00,-999.9,-99.9,29.90,North,32767,-999.0,-999.0,255,-99.99,,,0.00,Wunderground v.1.15,2013-12-03 12:32:00,
2013-12-03 07:33:00,-999.9,-99.9,29.90,North,32767,-999.0,-999.0,255,-99.99,,,0.00,Wunderground v.1.15,2013-12-03 12:33:00,
2013-12-03 07:35:00,-999.9,-99.9,29.90,North,32767,-999.0,-999.0,255,-99.99,,,0.00,Wunderground v.1.15,2013-12-03 12:35:00,
2013-12-03 07:36:00,-999.9,-99.9,29.90,North,32767,-999.0,-999.0,255,-99.99,,,0.00,Wunderground v.1.15,2013-12-03 12:36:00,
2013-12-03 07:37:00,-999.9,-99.9,29.90,North,32767,-999.0,-999.0,255,-99.99,,,0.00,Wunderground v.1.15,2013-12-03 12:37:00,
2013-12-03 07:39:00,-999.9,-99.9,29.89,North,32767,-999.0,-999.0,255,-99.99,,,0.00,Wunderground v.1.15,2013-12-03 12:39:00,
2013-12-03 07:41:00,-999.9,-99.9,29.89,North,32767,-999.0,-999.0,255,-99.99,,,0.00,Wunderground v.1.15,2013-12-03 12:41:00,
2013-12-03 07:42:00,-999.9,-99.9,29.90,North,32767,-999.0,-999.0,255,-99.99,,,0.00,Wunderground v.1.15,2013-12-03 12:42:00,
2013-12-03 07:44:00,-999.9,-99.9,29.90,North,32767,-999.0,-999.0,255,-99.99,,,0.00,Wunderground v.1.15,2013-12-03 12:44:00,
2013-12-03 07:46:00,-999.9,-99.9,29.90,North,32767,-999.0,-999.0,255,-99.99,,,0.00,Wunderground v.1.15,2013-12-03 12:46:00,
2013-12-03 07:47:00,-999.9,-99.9,29.90,North,32767,-999.0,-999.0,255,-99.99,,,0.00,Wunderground v.1.15,2013-12-03 12:47:00,
2013-12-03 07:49:00,-999.9,-99.9,29.90,North,32767,-999.0,-999.0,255,-99.99,,,0.00,Wunderground v.1.15,2013-12-03 12:49:00,
2013-12-03 07:51:00,-999.9,-99.9,29.90,North,32767,-999.0,-999.0,255,-99.99,,,0.00,Wunderground v.1.15,2013-12-03 12:51:00,
2013-12-03 07:52:00,-999.9,-99.9,29.90,North,32767,-999.0,-999.0,255,-99.99,,,0.00,Wunderground v.1.15,2013-12-03 12:52:00,
2013-12-03 07:55:00,-999.9,-99.9,29.90,North,32767,-999.0,-999.0,255,-99.99,,,0.00,Wunderground v.1.15,2013-12-03 12:55:00,
2013-12-03 07:56:00,-999.9,-99.9,29.90,North,32767,-999.0,-999.0,255,-99.99,,,0.00,Wunderground v.1.15,2013-12-03 12:56:00,
2013-12-03 07:57:00,-999.9,-99.9,29.90,North,32767,-999.0,-999.0,255,-99.99,,,0.00,Wunderground v.1.15,2013-12-03 12:57:00,
2013-12-03 07:58:00,-999.9,-99.9,29.90,North,32767,-999.0,-999.0,255,-99.99,,,0.00,Wunderground v.1.15,2013-12-03 12:58:00,
2013-12-03 08:00:00,38.5,37.5,29.90,NNE,27,4.0,4.0,96,0.00,,,0.00,Wunderground v.1.15,2013-12-03 13:00:00,
2013-12-03 08:01:00,38.5,37.5,29.90,NNE,22,2.0,5.0,96,0.00,,,0.00,Wunderground v.1.15,2013-12-03 13:01:00,
2013-12-03 08:02:00,38.5,37.5,29.90,NNE,23,3.0,5.0,96,0.00,,,0.00,Wunderground v.1.15,2013-12-03 13:02:00,
2013-12-03 08:03:00,38.5,37.5,29.90,NNE,20,0.0,5.0,96,0.00,,,0.00,Wunderground v.1.15,2013-12-03 13:03:00,
2013-12-03 08:04:00,38.6,37.6,29.90,North,352,1.0,5.0,96,0.00,,,0.00,Wunderground v.1.15,2013-12-03 13:04:00,
2013-12-03 08:05:00,38.5,37.5,29.90,NNE,16,2.0,5.0,96,0.00,,,0.00,Wunderground v.1.15,2013-12-03 13:05:00,
2013-12-03 08:06:00,38.6,37.6,29.90,NNW,345,4.0,6.0,96,0.00,,,0.00,Wunderground v.1.15,2013-12-03 13:06:00,
2013-12-03 08:07:00,38.6,37.6,29.90,North,356,2.0,6.0,96,0.00,,,0.00,Wunderground v.1.15,2013-12-03 13:07:00,
2013-12-03 08:08:00,38.5,37.5,29.90,NW,322,2.0,6.0,96,0.00,,,0.00,Wunderground v.1.15,2013-12-03 13:08:00,
2013-12-03 08:09:00,38.6,37.6,29.90,North,6,2.0,6.0,96,0.00,,,0.00,Wunderground v.1.15,2013-12-03 13:09:00,
2013-12-03 08:10:00,38.6,37.6,29.90,NNW,333,1.0,3.0,96,0.00,,,0.00,Wunderground v.1.15,2013-12-03 13:10:00,
2013-12-03 08:11:00,38.6,37.6,29.90,NNW,333,3.0,5.0,96,0.00,,,0.00,Wunderground v.1.15,2013-12-03 13:11:00,
2013-12-03 08:13:00,38.6,37.6,29.90,NNW,339,3.0,5.0,96,0.00,,,0.00,Wunderground v.1.15,2013-12-03 13:13:00,
2013-12-03 08:14:00,38.6,37.6,29.90,NNW,342,5.0,6.0,96,0.00,,,0.00,Wunderground v.1.15,2013-12-03 13:14:00,
2013-12-03 08:15:00,38.6,37.6,29.90,NNW,342,3.0,6.0,96,0.00,,,0.00,Wunderground v.1.15,2013-12-03 13:15:00,
2013-12-03 08:17:00,38.6,37.6,29.90,NW,323,2.0,6.0,96,0.00,,,0.00,Wunderground v.1.15,2013-12-03 13:17:00,
2013-12-03 08:18:00,38.6,37.6,29.90,NNW,346,2.0,6.0,96,0.00,,,0.00,Wunderground v.1.15,2013-12-03 13:18:00,
2013-12-03 08:19:00,38.6,37.6,29.90,NW,323,2.0,6.0,96,0.00,,,0.00,Wunderground v.1.15,2013-12-03 13:19:00,
2013-12-03 08:20:00,38.7,37.7,29.90,NNE,12,2.0,3.0,96,0.00,,,0.00,Wunderground v.1.15,2013-12-03 13:20:00,
2013-12-03 08:21:00,38.7,37.7,29.90,NE,44,1.0,4.0,96,0.00,,,0.00,Wunderground v.1.15,2013-12-03 13:21:00,
2013-12-03 08:22:00,38.7,37.7,29.90,NNE,31,3.0,4.0,96,0.00,,,0.00,Wunderground v.1.15,2013-12-03 13:22:00,
2013-12-03 08:23:00,38.7,37.7,29.89,NE,37,3.0,4.0,96,0.00,,,0.00,Wunderground v.1.15,2013-12-03 13:23:00,
2013-12-03 08:24:00,38.7,37.7,29.89,NE,34,1.0,4.0,96,0.00,,,0.00,Wunderground v.1.15,2013-12-03 13:24:00,
2013-12-03 08:25:00,38.7,37.7,29.89,NE,37,3.0,4.0,96,0.00,,,0.00,Wunderground v.1.15,2013-12-03 13:25:00,
2013-12-03 08:26:00,38.7,37.7,29.89,NNE,18,4.0,6.0,96,0.00,,,0.00,Wunderground v.1.15,2013-12-03 13:26:00,
2013-12-03 08:27:00,38.7,37.7,29.89,NNW,342,3.0,6.0,96,0.00,,,0.00,Wunderground v.1.15,2013-12-03 13:27:00,
2013-12-03 08:29:00,38.7,37.7,29.90,NNE,33,1.0,6.0,96,0.00,,,0.00,Wunderground v.1.15,2013-12-03 13:29:00,
2013-12-03 08:30:00,38.7,37.7,29.90,NNW,332,3.0,4.0,96,0.00,,,0.00,Wunderground v.1.15,2013-12-03 13:30:00,
2013-12-03 08:31:00,38.7,37.7,29.90,NNE,31,4.0,5.0,96,0.00,,,0.00,Wunderground v.1.15,2013-12-03 13:31:00,
2013-12-03 08:32:00,38.6,37.6,29.90,NNE,19,2.0,5.0,96,0.00,,,0.00,Wunderground v.1.15,2013-12-03 13:32:00,
2013-12-03 08:34:00,38.7,37.7,29.90,NNW,347,2.0,5.0,96,0.00,,,0.00,Wunderground v.1.15,2013-12-03 13:34:00,
2013-12-03 08:35:00,38.7,37.7,29.89,NW,326,2.0,5.0,96,0.00,,,0.00,Wunderground v.1.15,2013-12-03 13:35:00,
2013-12-03 08:36:00,38.7,37.7,29.89,NNW,338,2.0,5.0,96,0.00,,,0.00,Wunderground v.1.15,2013-12-03 13:36:00,
2013-12-03 08:37:00,38.7,37.7,29.89,NNW,329,2.0,5.0,96,0.00,,,0.00,Wunderground v.1.15,2013-12-03 13:37:00,
2013-12-03 08:40:00,38.7,37.7,29.89,NNW,347,2.0,3.0,96,0.00,,,0.00,Wunderground v.1.15,2013-12-03 13:40:00,
2013-12-03 08:41:00,38.7,37.7,29.89,NNE,13,2.0,3.0,96,0.00,,,0.00,Wunderground v.1.15,2013-12-03 13:41:00,
2013-12-03 08:42:00,38.7,37.7,29.89,NW,317,0.0,3.0,96,0.00,,,0.00,Wunderground v.1.15,2013-12-03 13:42:00,
2013-12-03 08:45:00,38.7,37.7,29.89,North,5,2.0,4.0,96,0.00,,,0.00,Wunderground v.1.15,2013-12-03 13:45:00,
2013-12-03 08:46:00,38.7,37.7,29.89,NNW,342,4.0,4.0,96,0.00,,,0.00,Wunderground v.1.15,2013-12-03 13:46:00,
2013-12-03 08:47:00,38.7,37.7,29.89,NE,42,1.0,4.0,96,0.00,,,0.00,Wunderground v.1.15,2013-12-03 13:47:00,
2013-12-03 08:50:00,38.8,37.8,29.89,NNE,12,3.0,3.0,96,0.00,,,0.00,Wunderground v.1.15,2013-12-03 13:50:00,
2013-12-03 08:51:00,38.8,37.8,29.89,NW,320,3.0,3.0,96,0.00,,,0.00,Wunderground v.1.15,2013-12-03 13:51:00,
2013-12-03 08:52:00,38.8,37.8,29.89,NNW,341,1.0,5.0,96,0.00,,,0.00,Wunderground v.1.15,2013-12-03 13:52:00,
2013-12-03 08:53:00,38.8,37.8,29.89,NNW,330,2.0,5.0,96,0.00,,,0.00,Wunderground v.1.15,2013-12-03 13:53:00,
2013-12-03 08:56:00,38.9,37.9,29.89,NW,307,1.0,5.0,96,0.00,,,0.00,Wunderground v.1.15,2013-12-03 13:56:00,
2013-12-03 08:57:00,38.9,37.9,29.89,NNE,16,2.0,5.0,96,0.00,,,0.00,Wunderground v.1.15,2013-12-03 13:57:00,
2013-12-03 08:58:00,38.9,37.9,29.89,WNW,297,1.0,5.0,96,0.00,,,0.00,Wunderground v.1.15,2013-12-03 13:58:00,
2013-12-03 09:01:00,39.0,38.0,29.89,North,3,3.0,3.0,96,0.00,,,0.00,Wunderground v.1.15,2013-12-03 14:01:00,
2013-12-03 09:02:00,39.0,38.0,29.90,NNW,328,1.0,3.0,96,0.00,,,0.00,Wunderground v.1.15,2013-12-03 14:02:00,
2013-12-03 09:03:00,39.1,38.1,29.89,NW,325,1.0,3.0,96,0.00,,,0.00,Wunderground v.1.15,2013-12-03 14:03:00,
2013-12-03 09:06:00,39.2,38.2,29.90,NNW,342,1.0,3.0,96,0.00,,,0.00,Wunderground v.1.15,2013-12-03 14:06:00,
2013-12-03 09:07:00,39.2,38.2,29.90,NNW,330,1.0,3.0,96,0.00,,,0.00,Wunderground v.1.15,2013-12-03 14:07:00,
2013-12-03 09:08:00,39.2,38.2,29.90,NNW,345,1.0,3.0,96,0.00,,,0.00,Wunderground v.1.15,2013-12-03 14:08:00,
2013-12-03 09:09:00,39.2,37.9,29.90,WNW,295,1.0,4.0,95,0.00,,,0.00,Wunderground v.1.15,2013-12-03 14:09:00,
2013-12-03 09:11:00,39.2,37.9,29.90,NNW,330,4.0,5.0,95,0.00,,,0.00,Wunderground v.1.15,2013-12-03 14:11:00,
2013-12-03 09:12:00,39.2,37.9,29.90,NW,309,2.0,5.0,95,0.00,,,0.00,Wunderground v.1.15,2013-12-03 14:12:00,
2013-12-03 09:13:00,39.2,37.9,29.90,NNW,338,5.0,5.0,95,0.00,,,0.00,Wunderground v.1.15,2013-12-03 14:13:00,
2013-12-03 09:14:00,39.2,37.9,29.90,NNW,329,5.0,5.0,95,0.00,,,0.00,Wunderground v.1.15,2013-12-03 14:14:00,
2013-12-03 09:16:00,39.2,37.9,29.90,NNW,330,1.0,5.0,95,0.00,,,0.00,Wunderground v.1.15,2013-12-03 14:16:00,
2013-12-03 09:17:00,39.2,37.9,29.90,North,349,2.0,5.0,95,0.00,,,0.00,Wunderground v.1.15,2013-12-03 14:17:00,
2013-12-03 09:18:00,39.2,37.9,29.90,WNW,301,4.0,5.0,95,0.00,,,0.00,Wunderground v.1.15,2013-12-03 14:18:00,
2013-12-03 09:20:00,39.2,37.9,29.90,North,352,3.0,3.0,95,0.00,,,0.00,Wunderground v.1.15,2013-12-03 14:20:00,
2013-12-03 09:22:00,39.2,37.9,29.90,NNW,337,1.0,4.0,95,0.00,,,0.00,Wunderground v.1.15,2013-12-03 14:22:00,
2013-12-03 09:23:00,39.3,38.0,29.90,NW,314,2.0,4.0,95,0.00,,,0.00,Wunderground v.1.15,2013-12-03 14:23:00,
2013-12-03 09:25:00,39.3,38.0,29.90,NNE,26,1.0,4.0,95,0.00,,,0.00,Wunderground v.1.15,2013-12-03 14:25:00,
2013-12-03 09:27:00,39.3,38.0,29.89,North,360,2.0,4.0,95,0.00,,,0.00,Wunderground v.1.15,2013-12-03 14:27:00,
2013-12-03 09:28:00,39.3,38.0,29.89,NNE,18,5.0,6.0,95,0.00,,,0.00,Wunderground v.1.15,2013-12-03 14:28:00,
2013-12-03 09:29:00,39.3,38.0,29.89,NNE,18,5.0,6.0,95,0.00,,,0.00,Wunderground v.1.15,2013-12-03 14:29:00,
2013-12-03 09:30:00,39.3,38.0,29.89,NNW,329,4.0,4.0,95,0.00,,,0.00,Wunderground v.1.15,2013-12-03 14:30:00,
2013-12-03 09:32:00,39.3,38.0,29.89,NNW,329,1.0,5.0,95,0.00,,,0.00,Wunderground v.1.15,2013-12-03 14:32:00,
2013-12-03 09:33:00,39.4,38.1,29.90,North,359,3.0,5.0,95,0.00,,,0.00,Wunderground v.1.15,2013-12-03 14:33:00,
2013-12-03 09:34:00,39.4,38.1,29.89,NW,323,3.0,5.0,95,0.00,,,0.00,Wunderground v.1.15,2013-12-03 14:34:00,
2013-12-03 09:35:00,39.4,37.8,29.89,NW,316,4.0,5.0,94,0.00,,,0.00,Wunderground v.1.15,2013-12-03 14:35:00,
2013-12-03 09:37:00,39.5,37.9,29.89,NW,326,3.0,5.0,94,0.00,,,0.00,Wunderground v.1.15,2013-12-03 14:37:00,
2013-12-03 09:38:00,39.5,37.9,29.89,NNW,347,3.0,5.0,94,0.00,,,0.00,Wunderground v.1.15,2013-12-03 14:38:00,
2013-12-03 09:39:00,39.5,37.9,29.89,NNE,13,3.0,5.0,94,0.00,,,0.00,Wunderground v.1.15,2013-12-03 14:39:00,
2013-12-03 09:40:00,39.5,37.9,29.89,NNW,340,3.0,6.0,94,0.00,,,0.00,Wunderground v.1.15,2013-12-03 14:40:00,
2013-12-03 09:42:00,39.6,38.0,29.89,North,350,0.0,6.0,94,0.00,,,0.00,Wunderground v.1.15,2013-12-03 14:42:00,
2013-12-03 09:43:00,39.6,38.0,29.89,North,5,3.0,6.0,94,0.00,,,0.00,Wunderground v.1.15,2013-12-03 14:43:00,
2013-12-03 09:44:00,39.6,38.0,29.89,NNW,331,4.0,6.0,94,0.00,,,0.00,Wunderground v.1.15,2013-12-03 14:44:00,
2013-12-03 09:46:00,39.7,38.1,29.89,NNE,15,2.0,6.0,94,0.00,,,0.00,Wunderground v.1.15,2013-12-03 14:46:00,
2013-12-03 09:48:00,39.7,38.1,29.89,NNW,336,2.0,6.0,94,0.00,,,0.00,Wunderground v.1.15,2013-12-03 14:48:00,
2013-12-03 09:49:00,39.8,38.2,29.89,North,358,2.0,6.0,94,0.00,,,0.00,Wunderground v.1.15,2013-12-03 14:49:00,
2013-12-03 09:51:00,39.9,38.3,29.89,NNW,337,2.0,4.0,94,0.00,,,0.00,Wunderground v.1.15,2013-12-03 14:51:00,
2013-12-03 09:53:00,40.0,38.4,29.89,West,281,1.0,4.0,94,0.00,,,0.00,Wunderground v.1.15,2013-12-03 14:53:00,
2013-12-03 09:54:00,40.1,38.5,29.89,NNW,343,1.0,4.0,94,0.00,,,0.00,Wunderground v.1.15,2013-12-03 14:54:00,
2013-12-03 09:56:00,40.4,38.8,29.89,North,359,0.0,4.0,94,0.00,,,0.00,Wunderground v.1.15,2013-12-03 14:56:00,
2013-12-03 09:58:00,40.8,39.2,29.89,NNE,13,0.0,4.0,94,0.00,,,0.00,Wunderground v.1.15,2013-12-03 14:58:00,
2013-12-03 09:59:00,40.9,39.3,29.89,NE,46,4.0,4.0,94,0.00,,,0.00,Wunderground v.1.15,2013-12-03 14:59:00,
2013-12-03 10:00:00,41.1,39.2,29.89,North,8,0.0,5.0,93,0.00,,,0.00,Wunderground v.1.15,2013-12-03 15:00:00,
2013-12-03 10:01:00,41.2,39.3,29.89,WNW,288,2.0,5.0,93,0.00,,,0.00,Wunderground v.1.15,2013-12-03 15:01:00,
2013-12-03 10:03:00,41.5,39.6,29.89,North,351,2.0,5.0,93,0.00,,,0.00,Wunderground v.1.15,2013-12-03 15:03:00,
2013-12-03 10:04:00,41.6,39.4,29.89,NNW,342,2.0,5.0,92,0.00,,,0.00,Wunderground v.1.15,2013-12-03 15:04:00,
2013-12-03 10:05:00,41.7,39.5,29.89,NNW,336,1.0,5.0,92,0.00,,,0.00,Wunderground v.1.15,2013-12-03 15:05:00,
2013-12-03 10:06:00,41.8,39.6,29.89,NNE,12,2.0,5.0,92,0.00,,,0.00,Wunderground v.1.15,2013-12-03 15:06:00,
2013-12-03 10:08:00,41.9,39.5,29.89,NNE,20,0.0,5.0,91,0.00,,,0.00,Wunderground v.1.15,2013-12-03 15:08:00,
2013-12-03 10:09:00,42.0,39.6,29.89,NNW,341,2.0,2.0,91,0.00,,,0.00,Wunderground v.1.15,2013-12-03 15:09:00,
2013-12-03 10:10:00,42.0,39.3,29.89,NNW,334,3.0,4.0,90,0.00,,,0.00,Wunderground v.1.15,2013-12-03 15:10:00,
2013-12-03 10:11:00,42.0,39.3,29.89,NW,315,4.0,4.0,90,0.00,,,0.00,Wunderground v.1.15,2013-12-03 15:11:00,
2013-12-03 10:12:00,42.0,39.3,29.89,WNW,295,2.0,5.0,90,0.00,,,0.00,Wunderground v.1.15,2013-12-03 15:12:00,
2013-12-03 10:13:00,41.9,38.9,29.89,NNE,26,2.0,5.0,89,0.00,,,0.00,Wunderground v.1.15,2013-12-03 15:13:00,
2013-12-03 10:14:00,41.9,38.9,29.89,NNW,348,3.0,5.0,89,0.00,,,0.00,Wunderground v.1.15,2013-12-03 15:14:00,
2013-12-03 10:15:00,41.9,38.9,29.89,NNW,328,4.0,5.0,89,0.00,,,0.00,Wunderground v.1.15,2013-12-03 15:15:00,
2013-12-03 10:16:00,41.8,38.8,29.89,North,359,3.0,5.0,89,0.00,,,0.00,Wunderground v.1.15,2013-12-03 15:16:00,
2013-12-03 10:17:00,41.9,38.9,29.89,NNW,331,1.0,5.0,89,0.00,,,0.00,Wunderground v.1.15,2013-12-03 15:17:00,
2013-12-03 10:19:00,41.9,38.9,29.89,NNE,23,3.0,5.0,89,0.00,,,0.00,Wunderground v.1.15,2013-12-03 15:19:00,
2013-12-03 10:20:00,41.9,38.9,29.89,NNW,345,3.0,4.0,89,0.00,,,0.00,Wunderground v.1.15,2013-12-03 15:20:00,
2013-12-03 10:21:00,42.0,39.0,29.89,NNW,344,3.0,4.0,89,0.00,,,0.00,Wunderground v.1.15,2013-12-03 15:21:00,
2013-12-03 10:22:00,42.0,39.0,29.89,North,350,4.0,4.0,89,0.00,,,0.00,Wunderground v.1.15,2013-12-03 15:22:00,
2013-12-03 10:24:00,42.1,39.1,29.89,NNW,342,1.0,5.0,89,0.00,,,0.00,Wunderground v.1.15,2013-12-03 15:24:00,
2013-12-03 10:25:00,42.2,39.2,29.89,NNE,32,5.0,5.0,89,0.00,,,0.00,Wunderground v.1.15,2013-12-03 15:25:00,
2013-12-03 10:26:00,42.2,39.2,29.88,North,4,5.0,5.0,89,0.00,,,0.00,Wunderground v.1.15,2013-12-03 15:26:00,
2013-12-03 10:27:00,42.3,39.0,29.88,NNW,329,3.0,5.0,88,0.00,,,0.00,Wunderground v.1.15,2013-12-03 15:27:00,
2013-12-03 10:29:00,42.4,39.1,29.88,North,5,2.0,5.0,88,0.00,,,0.00,Wunderground v.1.15,2013-12-03 15:29:00,
2013-12-03 10:30:00,42.5,39.2,29.88,NNW,341,4.0,6.0,88,0.00,,,0.00,Wunderground v.1.15,2013-12-03 15:30:00,
2013-12-03 10:31:00,42.5,39.2,29.88,NNW,333,3.0,6.0,88,0.00,,,0.00,Wunderground v.1.15,2013-12-03 15:31:00,
2013-12-03 10:32:00,42.5,39.2,29.89,NNE,16,2.0,6.0,88,0.00,,,0.00,Wunderground v.1.15,2013-12-03 15:32:00,
2013-12-03 10:33:00,42.6,39.3,29.89,NW,326,4.0,6.0,88,0.00,,,0.00,Wunderground v.1.15,2013-12-03 15:33:00,
2013-12-03 10:34:00,42.6,39.0,29.89,NW,305,2.0,6.0,87,0.00,,,0.00,Wunderground v.1.15,2013-12-03 15:34:00,
2013-12-03 10:36:00,42.5,38.9,29.89,NW,313,1.0,6.0,87,0.00,,,0.00,Wunderground v.1.15,2013-12-03 15:36:00,
2013-12-03 10:37:00,42.5,38.9,29.88,NW,304,2.0,6.0,87,0.00,,,0.00,Wunderground v.1.15,2013-12-03 15:37:00,
2013-12-03 10:38:00,42.5,38.9,29.88,West,278,1.0,6.0,87,0.00,,,0.00,Wunderground v.1.15,2013-12-03 15:38:00,
2013-12-03 10:39:00,42.5,38.9,29.88,NNW,336,1.0,6.0,87,0.00,,,0.00,Wunderground v.1.15,2013-12-03 15:39:00,
2013-12-03 10:40:00,42.5,38.9,29.88,NW,326,1.0,3.0,87,0.00,,,0.00,Wunderground v.1.15,2013-12-03 15:40:00,
2013-12-03 10:41:00,42.6,39.0,29.88,NNW,338,2.0,3.0,87,0.00,,,0.00,Wunderground v.1.15,2013-12-03 15:41:00,
2013-12-03 10:42:00,42.7,39.1,29.88,NNW,336,3.0,3.0,87,0.00,,,0.00,Wunderground v.1.15,2013-12-03 15:42:00,
2013-12-03 10:43:00,42.7,39.1,29.88,NW,305,2.0,4.0,87,0.00,,,0.00,Wunderground v.1.15,2013-12-03 15:43:00,
2013-12-03 10:44:00,42.8,38.9,29.88,NNW,329,3.0,4.0,86,0.00,,,0.00,Wunderground v.1.15,2013-12-03 15:44:00,
2013-12-03 10:45:00,42.8,38.9,29.88,NNW,336,3.0,4.0,86,0.00,,,0.00,Wunderground v.1.15,2013-12-03 15:45:00,
2013-12-03 10:46:00,42.8,38.9,29.88,NNW,340,2.0,4.0,86,0.00,,,0.00,Wunderground v.1.15,2013-12-03 15:46:00,
2013-12-03 10:47:00,42.8,38.9,29.88,NNW,327,3.0,5.0,86,0.00,,,0.00,Wunderground v.1.15,2013-12-03 15:47:00,
2013-12-03 10:48:00,42.8,38.9,29.88,NW,325,2.0,5.0,86,0.00,,,0.00,Wunderground v.1.15,2013-12-03 15:48:00,
2013-12-03 10:50:00,42.8,39.2,29.88,NW,308,2.0,3.0,87,0.00,,,0.00,Wunderground v.1.15,2013-12-03 15:50:00,
2013-12-03 10:51:00,42.8,39.2,29.88,NW,326,2.0,3.0,87,0.00,,,0.00,Wunderground v.1.15,2013-12-03 15:51:00,
2013-12-03 10:52:00,42.8,38.9,29.88,NW,315,2.0,3.0,86,0.00,,,0.00,Wunderground v.1.15,2013-12-03 15:52:00,
2013-12-03 10:53:00,42.8,38.9,29.88,NNW,332,3.0,4.0,86,0.00,,,0.00,Wunderground v.1.15,2013-12-03 15:53:00,
2013-12-03 10:55:00,42.8,38.9,29.88,WNW,301,3.0,4.0,86,0.00,,,0.00,Wunderground v.1.15,2013-12-03 15:55:00,
2013-12-03 10:56:00,42.8,38.9,29.88,NW,308,3.0,4.0,86,0.00,,,0.00,Wunderground v.1.15,2013-12-03 15:56:00,
2013-12-03 10:58:00,42.9,39.0,29.88,North,356,4.0,4.0,86,0.00,,,0.00,Wunderground v.1.15,2013-12-03 15:58:00,
2013-12-03 10:59:00,42.9,39.0,29.88,North,11,5.0,6.0,86,0.00,,,0.00,Wunderground v.1.15,2013-12-03 15:59:00,
2013-12-03 11:00:00,42.9,39.0,29.88,NNW,335,5.0,5.0,86,0.00,,,0.00,Wunderground v.1.15,2013-12-03 16:00:00,
2013-12-03 11:01:00,43.0,38.8,29.88,NNW,333,3.0,5.0,85,0.00,,,0.00,Wunderground v.1.15,2013-12-03 16:01:00,
2013-12-03 11:03:00,43.0,38.5,29.88,NNW,340,3.0,6.0,84,0.00,,,0.00,Wunderground v.1.15,2013-12-03 16:03:00,
2013-12-03 11:04:00,43.1,38.9,29.88,NNE,32,4.0,6.0,85,0.00,,,0.00,Wunderground v.1.15,2013-12-03 16:04:00,
2013-12-03 11:05:00,43.1,38.6,29.88,WNW,298,3.0,6.0,84,0.00,,,0.00,Wunderground v.1.15,2013-12-03 16:05:00,
2013-12-03 11:06:00,43.1,38.6,29.88,NNE,15,4.0,6.0,84,0.00,,,0.00,Wunderground v.1.15,2013-12-03 16:06:00,
2013-12-03 11:08:00,43.2,38.7,29.88,NNW,339,2.0,6.0,84,0.00,,,0.00,Wunderground v.1.15,2013-12-03 16:08:00,
2013-12-03 11:09:00,43.3,38.5,29.88,NNE,19,4.0,6.0,83,0.00,,,0.00,Wunderground v.1.15,2013-12-03 16:09:00,
2013-12-03 11:11:00,43.3,38.5,29.87,NNW,329,2.0,4.0,83,0.00,,,0.00,Wunderground v.1.15,2013-12-03 16:11:00,
2013-12-03 11:13:00,43.5,38.7,29.87,WNW,295,2.0,5.0,83,0.00,,,0.00,Wunderground v.1.15,2013-12-03 16:13:00,
2013-12-03 11:14:00,43.6,38.8,29.87,WNW,284,1.0,5.0,83,0.00,,,0.00,Wunderground v.1.15,2013-12-03 16:14:00,
2013-12-03 11:16:00,43.8,39.0,29.87,NW,322,1.0,5.0,83,0.00,,,0.00,Wunderground v.1.15,2013-12-03 16:16:00,
2013-12-03 11:17:00,43.9,39.1,29.87,NNW,346,2.0,5.0,83,0.00,,,0.00,Wunderground v.1.15,2013-12-03 16:17:00,
2013-12-03 11:19:00,44.0,38.9,29.87,North,11,2.0,5.0,82,0.00,,,0.00,Wunderground v.1.15,2013-12-03 16:19:00,
2013-12-03 11:21:00,44.1,38.6,29.87,NNE,20,2.0,5.0,81,0.00,,,0.00,Wunderground v.1.15,2013-12-03 16:21:00,
2013-12-03 11:22:00,44.1,38.6,29.87,NNE,13,6.0,6.0,81,0.00,,,0.00,Wunderground v.1.15,2013-12-03 16:22:00,
2013-12-03 11:24:00,44.2,38.7,29.87,NNW,345,3.0,6.0,81,0.00,,,0.00,Wunderground v.1.15,2013-12-03 16:24:00,
2013-12-03 11:26:00,44.2,38.4,29.87,NNE,15,3.0,6.0,80,0.00,,,0.00,Wunderground v.1.15,2013-12-03 16:26:00,
2013-12-03 11:27:00,44.3,38.5,29.87,NNE,20,3.0,6.0,80,0.00,,,0.00,Wunderground v.1.15,2013-12-03 16:27:00,
2013-12-03 11:28:00,44.3,38.5,29.87,NNW,331,1.0,6.0,80,0.00,,,0.00,Wunderground v.1.15,2013-12-03 16:28:00,
2013-12-03 11:30:00,44.4,38.6,29.87,North,352,4.0,5.0,80,0.00,,,0.00,Wunderground v.1.15,2013-12-03 16:30:00,
2013-12-03 11:31:00,44.4,38.6,29.87,NNW,340,3.0,5.0,80,0.00,,,0.00,Wunderground v.1.15,2013-12-03 16:31:00,
2013-12-03 11:32:00,44.4,38.6,29.87,NNW,346,4.0,5.0,80,0.00,,,0.00,Wunderground v.1.15,2013-12-03 16:32:00,
2013-12-03 11:33:00,44.5,38.4,29.86,NE,37,2.0,5.0,79,0.00,,,0.00,Wunderground v.1.15,2013-12-03 16:33:00,
2013-12-03 11:34:00,44.5,38.7,29.86,North,352,3.0,5.0,80,0.00,,,0.00,Wunderground v.1.15,2013-12-03 16:34:00,
2013-12-03 11:35:00,44.6,38.5,29.86,NNW,334,4.0,6.0,79,0.00,,,0.00,Wunderground v.1.15,2013-12-03 16:35:00,
2013-12-03 11:36:00,44.6,38.2,29.86,NNW,340,3.0,6.0,78,0.00,,,0.00,Wunderground v.1.15,2013-12-03 16:36:00,
2013-12-03 11:37:00,44.6,38.2,29.86,North,9,4.0,6.0,78,0.00,,,0.00,Wunderground v.1.15,2013-12-03 16:37:00,
2013-12-03 11:38:00,44.6,38.2,29.86,NNW,332,3.0,6.0,78,0.00,,,0.00,Wunderground v.1.15,2013-12-03 16:38:00,
2013-12-03 11:39:00,44.7,38.3,29.86,NNE,30,4.0,4.0,78,0.00,,,0.00,Wunderground v.1.15,2013-12-03 16:39:00,
2013-12-03 11:40:00,44.7,38.3,29.86,North,6,3.0,5.0,78,0.00,,,0.00,Wunderground v.1.15,2013-12-03 16:40:00,
2013-12-03 11:42:00,44.8,38.0,29.86,NE,41,4.0,6.0,77,0.00,,,0.00,Wunderground v.1.15,2013-12-03 16:42:00,
2013-12-03 11:43:00,44.8,38.0,29.86,NW,314,3.0,7.0,77,0.00,,,0.00,Wunderground v.1.15,2013-12-03 16:43:00,
2013-12-03 11:45:00,44.9,38.1,29.86,North,8,4.0,7.0,77,0.00,,,0.00,Wunderground v.1.15,2013-12-03 16:45:00,
2013-12-03 11:46:00,44.9,38.1,29.86,NNW,335,4.0,7.0,77,0.00,,,0.00,Wunderground v.1.15,2013-12-03 16:46:00,
2013-12-03 11:47:00,45.0,38.2,29.86,WNW,290,2.0,7.0,77,0.00,,,0.00,Wunderground v.1.15,2013-12-03 16:47:00,
2013-12-03 11:48:00,45.0,38.2,29.85,NNW,344,4.0,7.0,77,0.00,,,0.00,Wunderground v.1.15,2013-12-03 16:48:00,
2013-12-03 11:49:00,45.1,38.3,29.86,North,359,2.0,7.0,77,0.00,,,0.00,Wunderground v.1.15,2013-12-03 16:49:00,
2013-12-03 11:50:00,45.2,38.4,29.86,NNW,347,4.0,5.0,77,0.00,,,0.00,Wunderground v.1.15,2013-12-03 16:50:00,
2013-12-03 11:52:00,45.2,38.4,29.86,North,350,4.0,5.0,77,0.00,,,0.00,Wunderground v.1.15,2013-12-03 16:52:00,
2013-12-03 11:53:00,45.3,38.2,29.85,NW,323,3.0,6.0,76,0.00,,,0.00,Wunderground v.1.15,2013-12-03 16:53:00,
2013-12-03 11:54:00,45.4,38.6,29.85,NNW,331,2.0,6.0,77,0.00,,,0.00,Wunderground v.1.15,2013-12-03 16:54:00,
2013-12-03 11:55:00,45.4,38.6,29.85,NNW,337,4.0,6.0,77,0.00,,,0.00,Wunderground v.1.15,2013-12-03 16:55:00,
2013-12-03 11:57:00,45.6,38.5,29.86,WNW,290,3.0,6.0,76,0.00,,,0.00,Wunderground v.1.15,2013-12-03 16:57:00,
2013-12-03 11:58:00,45.6,38.5,29.86,NNW,341,6.0,6.0,76,0.00,,,0.00,Wunderground v.1.15,2013-12-03 16:58:00,
2013-12-03 12:00:00,45.6,38.5,29.85,North,351,4.0,6.0,76,0.00,,,0.00,Wunderground v.1.15,2013-12-03 17:00:00,
2013-12-03 12:02:00,45.7,38.6,29.85,NW,326,2.0,6.0,76,0.00,,,0.00,Wunderground v.1.15,2013-12-03 17:02:00,
2013-12-03 12:03:00,45.7,38.6,29.85,NW,321,2.0,6.0,76,0.00,,,0.00,Wunderground v.1.15,2013-12-03 17:03:00,
2013-12-03 12:04:00,45.8,38.7,29.85,NNW,329,5.0,6.0,76,0.00,,,0.00,Wunderground v.1.15,2013-12-03 17:04:00,
2013-12-03 12:05:00,45.7,38.2,29.85,NNW,339,4.0,6.0,75,0.00,,,0.00,Wunderground v.1.15,2013-12-03 17:05:00,
2013-12-03 12:06:00,45.7,38.2,29.85,NNW,331,2.0,6.0,75,0.00,,,0.00,Wunderground v.1.15,2013-12-03 17:06:00,
2013-12-03 12:07:00,45.8,38.3,29.85,NNW,344,4.0,6.0,75,0.00,,,0.00,Wunderground v.1.15,2013-12-03 17:07:00,
2013-12-03 12:08:00,45.8,38.3,29.85,North,4,3.0,6.0,75,0.00,,,0.00,Wunderground v.1.15,2013-12-03 17:08:00,
2013-12-03 12:10:00,46.0,38.2,29.85,North,4,3.0,6.0,74,0.00,,,0.00,Wunderground v.1.15,2013-12-03 17:10:00,
2013-12-03 12:11:00,46.0,38.5,29.85,NNW,346,3.0,6.0,75,0.00,,,0.00,Wunderground v.1.15,2013-12-03 17:11:00,
2013-12-03 12:12:00,46.2,38.4,29.85,North,8,4.0,6.0,74,0.00,,,0.00,Wunderground v.1.15,2013-12-03 17:12:00,
2013-12-03 12:13:00,46.3,38.5,29.85,North,9,4.0,7.0,74,0.00,,,0.00,Wunderground v.1.15,2013-12-03 17:13:00,
2013-12-03 12:16:00,46.4,38.2,29.85,NNW,341,2.0,7.0,73,0.00,,,0.00,Wunderground v.1.15,2013-12-03 17:16:00,
2013-12-03 12:17:00,46.4,38.2,29.86,NNW,346,4.0,7.0,73,0.00,,,0.00,Wunderground v.1.15,2013-12-03 17:17:00,
2013-12-03 12:18:00,46.4,38.2,29.85,NNW,335,3.0,7.0,73,0.00,,,0.00,Wunderground v.1.15,2013-12-03 17:18:00,
2013-12-03 12:19:00,46.4,38.2,29.85,North,354,2.0,7.0,73,0.00,,,0.00,Wunderground v.1.15,2013-12-03 17:19:00,
2013-12-03 12:21:00,46.3,38.1,29.85,North,356,2.0,5.0,73,0.00,,,0.00,Wunderground v.1.15,2013-12-03 17:21:00,
2013-12-03 12:22:00,46.2,38.0,29.85,NNW,337,2.0,5.0,73,0.00,,,0.00,Wunderground v.1.15,2013-12-03 17:22:00,
2013-12-03 12:23:00,46.3,38.1,29.85,North,1,3.0,5.0,73,0.00,,,0.00,Wunderground v.1.15,2013-12-03 17:23:00,
2013-12-03 12:24:00,46.3,38.5,29.85,NW,322,2.0,5.0,74,0.00,,,0.00,Wunderground v.1.15,2013-12-03 17:24:00,
2013-12-03 12:26:00,46.4,38.6,29.85,NNW,337,2.0,7.0,74,0.00,,,0.00,Wunderground v.1.15,2013-12-03 17:26:00,
2013-12-03 12:27:00,46.4,38.2,29.85,NNW,339,5.0,7.0,73,0.00,,,0.00,Wunderground v.1.15,2013-12-03 17:27:00,
2013-12-03 12:28:00,46.5,38.3,29.85,North,1,6.0,7.0,73,0.00,,,0.00,Wunderground v.1.15,2013-12-03 17:28:00,
2013-12-03 12:29:00,46.5,38.3,29.85,North,355,3.0,7.0,73,0.00,,,0.00,Wunderground v.1.15,2013-12-03 17:29:00,
2013-12-03 12:31:00,46.6,38.4,29.85,NW,311,3.0,4.0,73,0.00,,,0.00,Wunderground v.1.15,2013-12-03 17:31:00,
2013-12-03 12:32:00,46.7,38.5,29.85,NNE,12,2.0,4.0,73,0.00,,,0.00,Wunderground v.1.15,2013-12-03 17:32:00,
2013-12-03 12:33:00,46.7,38.5,29.85,NE,46,3.0,4.0,73,0.00,,,0.00,Wunderground v.1.15,2013-12-03 17:33:00,
2013-12-03 12:34:00,46.8,38.6,29.85,NW,314,2.0,4.0,73,0.00,,,0.00,Wunderground v.1.15,2013-12-03 17:34:00,
2013-12-03 12:36:00,46.9,38.7,29.85,NNW,346,2.0,4.0,73,0.00,,,0.00,Wunderground v.1.15,2013-12-03 17:36:00,
2013-12-03 12:37:00,46.9,38.7,29.85,NNE,32,3.0,4.0,73,0.00,,,0.00,Wunderground v.1.15,2013-12-03 17:37:00,
2013-12-03 12:38:00,47.1,38.9,29.85,NNW,330,1.0,4.0,73,0.00,,,0.00,Wunderground v.1.15,2013-12-03 17:38:00,
2013-12-03 12:41:00,47.2,39.0,29.85,NNW,338,4.0,4.0,73,0.00,,,0.00,Wunderground v.1.15,2013-12-03 17:41:00,
2013-12-03 12:42:00,47.3,38.7,29.85,North,6,2.0,5.0,72,0.00,,,0.00,Wunderground v.1.15,2013-12-03 17:42:00,
2013-12-03 12:43:00,47.3,38.7,29.85,NNE,13,4.0,5.0,72,0.00,,,0.00,Wunderground v.1.15,2013-12-03 17:43:00,
2013-12-03 12:44:00,47.3,38.7,29.85,NE,34,7.0,7.0,72,0.00,,,0.00,Wunderground v.1.15,2013-12-03 17:44:00,
2013-12-03 12:46:00,47.3,38.4,29.85,NNW,341,4.0,8.0,71,0.00,,,0.00,Wunderground v.1.15,2013-12-03 17:46:00,
2013-12-03 12:47:00,47.3,38.4,29.85,North,5,4.0,8.0,71,0.00,,,0.00,Wunderground v.1.15,2013-12-03 17:47:00,
2013-12-03 12:48:00,47.3,38.4,29.85,NE,41,5.0,8.0,71,0.00,,,0.00,Wunderground v.1.15,2013-12-03 17:48:00,
2013-12-03 12:49:00,47.3,38.4,29.85,North,11,2.0,8.0,71,0.00,,,0.00,Wunderground v.1.15,2013-12-03 17:49:00,
2013-12-03 12:51:00,47.3,38.4,29.85,North,4,2.0,3.0,71,0.00,,,0.00,Wunderground v.1.15,2013-12-03 17:51:00,
2013-12-03 12:52:00,47.3,38.4,29.85,NW,311,2.0,4.0,71,0.00,,,0.00,Wunderground v.1.15,2013-12-03 17:52:00,
2013-12-03 12:54:00,47.3,38.4,29.85,NW,323,1.0,4.0,71,0.00,,,0.00,Wunderground v.1.15,2013-12-03 17:54:00,
2013-12-03 12:56:00,47.3,38.7,29.85,NW,311,1.0,4.0,72,0.00,,,0.00,Wunderground v.1.15,2013-12-03 17:56:00,
2013-12-03 12:57:00,47.3,38.7,29.85,NNW,344,1.0,4.0,72,0.00,,,0.00,Wunderground v.1.15,2013-12-03 17:57:00,
2013-12-03 12:58:00,47.4,38.8,29.85,NNW,343,4.0,6.0,72,0.00,,,0.00,Wunderground v.1.15,2013-12-03 17:58:00,
2013-12-03 12:59:00,47.4,38.5,29.85,NW,323,1.0,6.0,71,0.00,,,0.00,Wunderground v.1.15,2013-12-03 17:59:00,
2013-12-03 13:01:00,47.4,38.8,29.85,NW,315,1.0,3.0,72,0.00,,,0.00,Wunderground v.1.15,2013-12-03 18:01:00,
2013-12-03 13:02:00,47.3,38.7,29.85,North,354,3.0,3.0,72,0.00,,,0.00,Wunderground v.1.15,2013-12-03 18:02:00,
2013-12-03 13:03:00,47.3,38.7,29.85,NW,305,2.0,3.0,72,0.00,,,0.00,Wunderground v.1.15,2013-12-03 18:03:00,
2013-12-03 13:04:00,47.3,38.7,29.85,NNW,341,2.0,3.0,72,0.00,,,0.00,Wunderground v.1.15,2013-12-03 18:04:00,
2013-12-03 13:07:00,47.3,38.7,29.84,NNW,336,2.0,3.0,72,0.00,,,0.00,Wunderground v.1.15,2013-12-03 18:07:00,
2013-12-03 13:08:00,47.3,38.4,29.84,NW,307,3.0,3.0,71,0.00,,,0.00,Wunderground v.1.15,2013-12-03 18:08:00,
2013-12-03 13:09:00,47.2,38.3,29.84,NNW,341,3.0,4.0,71,0.00,,,0.00,Wunderground v.1.15,2013-12-03 18:09:00,
2013-12-03 13:12:00,47.2,38.3,29.84,NW,315,2.0,6.0,71,0.00,,,0.00,Wunderground v.1.15,2013-12-03 18:12:00,
2013-12-03 13:13:00,47.2,37.9,29.84,NNW,346,3.0,6.0,70,0.00,,,0.00,Wunderground v.1.15,2013-12-03 18:13:00,
2013-12-03 13:14:00,47.3,38.4,29.84,NNW,333,2.0,6.0,71,0.00,,,0.00,Wunderground v.1.15,2013-12-03 18:14:00,
2013-12-03 13:17:00,47.5,38.2,29.84,NW,321,2.0,6.0,70,0.00,,,0.00,Wunderground v.1.15,2013-12-03 18:17:00,
2013-12-03 13:18:00,47.5,38.2,29.84,NNW,328,2.0,6.0,70,0.00,,,0.00,Wunderground v.1.15,2013-12-03 18:18:00,
2013-12-03 13:19:00,47.5,38.2,29.84,NW,325,4.0,6.0,70,0.00,,,0.00,Wunderground v.1.15,2013-12-03 18:19:00,
2013-12-03 13:22:00,47.7,37.7,29.84,NNW,330,3.0,7.0,68,0.00,,,0.00,Wunderground v.1.15,2013-12-03 18:22:00,
2013-12-03 13:24:00,47.8,38.1,29.84,NNE,26,2.0,7.0,69,0.00,,,0.00,Wunderground v.1.15,2013-12-03 18:24:00,
2013-12-03 13:25:00,47.9,38.2,29.83,NW,308,4.0,7.0,69,0.00,,,0.00,Wunderground v.1.15,2013-12-03 18:25:00,
2013-12-03 13:27:00,47.9,37.8,29.84,North,349,4.0,7.0,68,0.00,,,0.00,Wunderground v.1.15,2013-12-03 18:27:00,
2013-12-03 13:29:00,48.0,37.9,29.84,NNW,337,2.0,7.0,68,0.00,,,0.00,Wunderground v.1.15,2013-12-03 18:29:00,
2013-12-03 13:30:00,48.0,37.9,29.84,NW,307,3.0,4.0,68,0.00,,,0.00,Wunderground v.1.15,2013-12-03 18:30:00,
2013-12-03 13:32:00,48.2,38.5,29.83,North,11,1.0,4.0,69,0.00,,,0.00,Wunderground v.1.15,2013-12-03 18:32:00,
2013-12-03 13:34:00,48.4,38.7,29.83,NW,315,1.0,4.0,69,0.00,,,0.00,Wunderground v.1.15,2013-12-03 18:34:00,
2013-12-03 13:35:00,48.5,38.4,29.83,NNE,19,2.0,4.0,68,0.00,,,0.00,Wunderground v.1.15,2013-12-03 18:35:00,
2013-12-03 13:38:00,48.7,38.6,29.83,NNE,27,4.0,4.0,68,0.00,,,0.00,Wunderground v.1.15,2013-12-03 18:38:00,
2013-12-03 13:39:00,48.8,38.3,29.83,North,358,3.0,3.0,67,0.00,,,0.00,Wunderground v.1.15,2013-12-03 18:39:00,
2013-12-03 13:40:00,48.8,38.3,29.83,NNE,12,1.0,3.0,67,0.00,,,0.00,Wunderground v.1.15,2013-12-03 18:40:00,
2013-12-03 13:43:00,48.9,38.0,29.83,NW,304,1.0,3.0,66,0.00,,,0.00,Wunderground v.1.15,2013-12-03 18:43:00,
2013-12-03 13:44:00,48.9,38.0,29.83,North,349,3.0,5.0,66,0.00,,,0.00,Wunderground v.1.15,2013-12-03 18:44:00,
2013-12-03 13:45:00,49.0,38.1,29.83,NNE,31,4.0,5.0,66,0.00,,,0.00,Wunderground v.1.15,2013-12-03 18:45:00,
2013-12-03 13:47:00,49.0,38.1,29.83,NNE,21,4.0,5.0,66,0.00,,,0.00,Wunderground v.1.15,2013-12-03 18:47:00,
2013-12-03 13:48:00,49.0,37.7,29.83,NNW,337,1.0,5.0,65,0.00,,,0.00,Wunderground v.1.15,2013-12-03 18:48:00,
2013-12-03 13:50:00,49.0,37.7,29.83,North,356,2.0,2.0,65,0.00,,,0.00,Wunderground v.1.15,2013-12-03 18:50:00,
2013-12-03 13:51:00,49.0,37.7,29.83,NNE,27,2.0,4.0,65,0.00,,,0.00,Wunderground v.1.15,2013-12-03 18:51:00,
2013-12-03 13:52:00,49.1,37.8,29.83,NNW,341,1.0,4.0,65,0.00,,,0.00,Wunderground v.1.15,2013-12-03 18:52:00,
2013-12-03 13:53:00,49.1,37.8,29.83,NNW,340,2.0,4.0,65,0.00,,,0.00,Wunderground v.1.15,2013-12-03 18:53:00,
2013-12-03 13:55:00,49.1,37.8,29.83,North,11,2.0,5.0,65,0.00,,,0.00,Wunderground v.1.15,2013-12-03 18:55:00,
2013-12-03 13:56:00,49.0,37.7,29.83,North,349,0.0,5.0,65,0.00,,,0.00,Wunderground v.1.15,2013-12-03 18:56:00,
2013-12-03 13:57:00,49.1,38.2,29.83,NW,322,2.0,5.0,66,0.00,,,0.00,Wunderground v.1.15,2013-12-03 18:57:00,
2013-12-03 13:59:00,49.1,38.2,29.84,NW,321,2.0,5.0,66,0.00,,,0.00,Wunderground v.1.15,2013-12-03 18:59:00,
2013-12-03 14:00:00,49.2,38.7,29.84,NW,308,1.0,2.0,67,0.00,,,0.00,Wunderground v.1.15,2013-12-03 19:00:00,
2013-12-03 14:01:00,49.2,39.1,29.83,WNW,295,2.0,4.0,68,0.00,,,0.00,Wunderground v.1.15,2013-12-03 19:01:00,
2013-12-03 14:02:00,49.2,38.3,29.83,NW,321,6.0,6.0,66,0.00,,,0.00,Wunderground v.1.15,2013-12-03 19:02:00,
2013-12-03 14:04:00,49.2,37.9,29.83,NNW,341,3.0,6.0,65,0.00,,,0.00,Wunderground v.1.15,2013-12-03 19:04:00,
2013-12-03 14:05:00,49.2,38.3,29.84,North,356,2.0,6.0,66,0.00,,,0.00,Wunderground v.1.15,2013-12-03 19:05:00,
2013-12-03 14:06:00,49.2,37.9,29.84,WNW,286,1.0,6.0,65,0.00,,,0.00,Wunderground v.1.15,2013-12-03 19:06:00,
2013-12-03 14:07:00,49.2,38.3,29.84,NW,304,5.0,6.0,66,0.00,,,0.00,Wunderground v.1.15,2013-12-03 19:07:00,
2013-12-03 14:10:00,49.2,37.9,29.84,NNW,328,2.0,4.0,65,0.00,,,0.00,Wunderground v.1.15,2013-12-03 19:10:00,
2013-12-03 14:11:00,49.2,37.9,29.84,WNW,298,2.0,4.0,65,0.00,,,0.00,Wunderground v.1.15,2013-12-03 19:11:00,
2013-12-03 14:12:00,49.3,38.0,29.84,WNW,303,2.0,4.0,65,0.00,,,0.00,Wunderground v.1.15,2013-12-03 19:12:00,
2013-12-03 14:15:00,49.3,38.0,29.84,NNW,331,5.0,5.0,65,0.00,,,0.00,Wunderground v.1.15,2013-12-03 19:15:00,
2013-12-03 14:16:00,49.3,38.0,29.84,NNW,338,4.0,5.0,65,0.00,,,0.00,Wunderground v.1.15,2013-12-03 19:16:00,
2013-12-03 14:17:00,49.3,38.0,29.84,WNW,295,2.0,5.0,65,0.00,,,0.00,Wunderground v.1.15,2013-12-03 19:17:00,
2013-12-03 14:18:00,49.3,38.0,29.84,NW,323,3.0,5.0,65,0.00,,,0.00,Wunderground v.1.15,2013-12-03 19:18:00,
2013-12-03 14:21:00,49.2,37.9,29.84,NW,321,2.0,3.0,65,0.00,,,0.00,Wunderground v.1.15,2013-12-03 19:21:00,
2013-12-03 14:22:00,49.2,37.9,29.84,NNW,345,2.0,3.0,65,0.00,,,0.00,Wunderground v.1.15,2013-12-03 19:22:00,
2013-12-03 14:23:00,49.3,38.0,29.84,NNE,13,1.0,3.0,65,0.00,,,0.00,Wunderground v.1.15,2013-12-03 19:23:00,
2013-12-03 14:26:00,49.3,38.4,29.84,ENE,68,3.0,5.0,66,0.00,,,0.00,Wunderground v.1.15,2013-12-03 19:26:00,
2013-12-03 14:27:00,49.2,38.7,29.84,NE,44,3.0,5.0,67,0.00,,,0.00,Wunderground v.1.15,2013-12-03 19:27:00,
2013-12-03 14:28:00,49.0,38.9,29.84,North,9,0.0,5.0,68,0.00,,,0.00,Wunderground v.1.15,2013-12-03 19:28:00,
2013-12-03 14:30:00,48.7,39.4,29.84,NNE,27,2.0,3.0,70,0.00,,,0.00,Wunderground v.1.15,2013-12-03 19:30:00,
2013-12-03 14:31:00,48.5,39.5,29.85,NNE,16,2.0,3.0,71,0.00,,,0.00,Wunderground v.1.15,2013-12-03 19:31:00,
2013-12-03 14:32:00,48.5,39.5,29.85,NNE,16,2.0,3.0,71,0.00,,,0.00,Wunderground v.1.15,2013-12-03 19:32:00,
2013-12-03 14:33:00,48.1,39.1,29.85,North,11,2.0,5.0,71,0.00,,,0.00,Wunderground v.1.15,2013-12-03 19:33:00,
2013-12-03 14:35:00,47.9,39.3,29.85,NE,49,2.0,5.0,72,0.00,,,0.00,Wunderground v.1.15,2013-12-03 19:35:00,
2013-12-03 14:37:00,47.6,39.4,29.85,ENE,72,2.0,5.0,73,0.00,,,0.00,Wunderground v.1.15,2013-12-03 19:37:00,
2013-12-03 14:38:00,47.4,39.2,29.85,NNE,27,2.0,5.0,73,0.00,,,0.00,Wunderground v.1.15,2013-12-03 19:38:00,
2013-12-03 14:39:00,47.3,39.4,29.85,ENE,57,0.0,5.0,74,0.00,,,0.00,Wunderground v.1.15,2013-12-03 19:39:00,
2013-12-03 14:42:00,47.1,39.2,29.85,NE,40,2.0,3.0,74,0.00,,,0.00,Wunderground v.1.15,2013-12-03 19:42:00,
2013-12-03 14:43:00,46.9,39.4,29.85,NE,51,1.0,3.0,75,0.00,,,0.00,Wunderground v.1.15,2013-12-03 19:43:00,
2013-12-03 14:44:00,46.9,39.4,29.85,NE,40,2.0,3.0,75,0.00,,,0.00,Wunderground v.1.15,2013-12-03 19:44:00,
2013-12-03 14:47:00,46.7,39.5,29.85,North,353,1.0,3.0,76,0.00,,,0.00,Wunderground v.1.15,2013-12-03 19:47:00,
2013-12-03 14:48:00,46.7,39.5,29.85,NNE,32,2.0,3.0,76,0.00,,,0.00,Wunderground v.1.15,2013-12-03 19:48:00,
2013-12-03 14:49:00,46.7,39.5,29.85,NNE,18,2.0,3.0,76,0.00,,,0.00,Wunderground v.1.15,2013-12-03 19:49:00,
2013-12-03 14:52:00,46.6,39.4,29.85,NNE,16,0.0,2.0,76,0.00,,,0.00,Wunderground v.1.15,2013-12-03 19:52:00,
2013-12-03 14:53:00,46.6,39.4,29.85,NNE,16,0.0,2.0,76,0.00,,,0.00,Wunderground v.1.15,2013-12-03 19:53:00,
2013-12-03 14:54:00,46.6,39.8,29.85,NNE,30,2.0,3.0,77,0.00,,,0.00,Wunderground v.1.15,2013-12-03 19:54:00,
2013-12-03 14:57:00,46.6,39.1,29.85,NNW,348,3.0,5.0,75,0.00,,,0.00,Wunderground v.1.15,2013-12-03 19:57:00,
2013-12-03 14:58:00,46.5,39.0,29.85,NNE,21,2.0,5.0,75,0.00,,,0.00,Wunderground v.1.15,2013-12-03 19:58:00,
2013-12-03 14:59:00,46.5,39.0,29.86,NNE,32,3.0,4.0,75,0.00,,,0.00,Wunderground v.1.15,2013-12-03 19:59:00,
2013-12-03 15:00:00,46.4,38.9,29.86,NNE,23,5.0,5.0,75,0.00,,,0.00,Wunderground v.1.15,2013-12-03 20:00:00,
2013-12-03 15:02:00,46.3,38.8,29.86,NNE,17,3.0,5.0,75,0.00,,,0.00,Wunderground v.1.15,2013-12-03 20:02:00,
2013-12-03 15:03:00,46.3,38.8,29.86,NNE,23,5.0,5.0,75,0.00,,,0.00,Wunderground v.1.15,2013-12-03 20:03:00,
2013-12-03 15:05:00,46.2,39.1,29.86,North,356,1.0,6.0,76,0.00,,,0.00,Wunderground v.1.15,2013-12-03 20:05:00,
2013-12-03 15:08:00,46.1,39.3,29.86,North,9,2.0,6.0,77,0.00,,,0.00,Wunderground v.1.15,2013-12-03 20:08:00,
2013-12-03 15:09:00,46.0,39.2,29.86,NNW,341,1.0,6.0,77,0.00,,,0.00,Wunderground v.1.15,2013-12-03 20:09:00,
2013-12-03 15:10:00,45.9,39.4,29.86,North,11,0.0,2.0,78,0.00,,,0.00,Wunderground v.1.15,2013-12-03 20:10:00,
2013-12-03 15:13:00,45.8,39.3,29.86,NE,43,0.0,2.0,78,0.00,,,0.00,Wunderground v.1.15,2013-12-03 20:13:00,
2013-12-03 15:14:00,45.8,39.3,29.86,NNW,345,1.0,2.0,78,0.00,,,0.00,Wunderground v.1.15,2013-12-03 20:14:00,
2013-12-03 15:15:00,45.7,39.6,29.86,North,359,0.0,2.0,79,0.00,,,0.00,Wunderground v.1.15,2013-12-03 20:15:00,
2013-12-03 15:18:00,45.7,39.6,29.86,NNE,23,5.0,5.0,79,0.00,,,0.00,Wunderground v.1.15,2013-12-03 20:18:00,
2013-12-03 15:19:00,45.7,39.6,29.86,NNE,20,2.0,5.0,79,0.00,,,0.00,Wunderground v.1.15,2013-12-03 20:19:00,
2013-12-03 15:20:00,45.6,39.5,29.86,NE,46,2.0,3.0,79,0.00,,,0.00,Wunderground v.1.15,2013-12-03 20:20:00,
2013-12-03 15:23:00,45.5,39.4,29.86,NNE,30,3.0,4.0,79,0.00,,,0.00,Wunderground v.1.15,2013-12-03 20:23:00,
2013-12-03 15:24:00,45.5,39.4,29.87,NNE,29,2.0,5.0,79,0.00,,,0.00,Wunderground v.1.15,2013-12-03 20:24:00,
2013-12-03 15:25:00,45.3,39.2,29.87,NE,36,2.0,5.0,79,0.00,,,0.00,Wunderground v.1.15,2013-12-03 20:25:00,
2013-12-03 15:28:00,45.2,39.4,29.87,ENE,76,2.0,5.0,80,0.00,,,0.00,Wunderground v.1.15,2013-12-03 20:28:00,
2013-12-03 15:29:00,45.2,39.4,29.87,NNW,348,1.0,5.0,80,0.00,,,0.00,Wunderground v.1.15,2013-12-03 20:29:00,
2013-12-03 15:30:00,45.1,39.3,29.87,NNE,22,2.0,3.0,80,0.00,,,0.00,Wunderground v.1.15,2013-12-03 20:30:00,
2013-12-03 15:33:00,45.0,39.2,29.87,NNE,30,0.0,3.0,80,0.00,,,0.00,Wunderground v.1.15,2013-12-03 20:33:00,
2013-12-03 15:34:00,45.0,39.2,29.87,NNE,26,3.0,3.0,80,0.00,,,0.00,Wunderground v.1.15,2013-12-03 20:34:00,
2013-12-03 15:35:00,45.0,39.2,29.87,North,9,1.0,4.0,80,0.00,,,0.00,Wunderground v.1.15,2013-12-03 20:35:00,
2013-12-03 15:39:00,44.8,39.3,29.87,NNE,22,1.0,4.0,81,0.00,,,0.00,Wunderground v.1.15,2013-12-03 20:39:00,
2013-12-03 15:40:00,44.8,39.3,29.86,NNE,16,2.0,2.0,81,0.00,,,0.00,Wunderground v.1.15,2013-12-03 20:40:00,
2013-12-03 15:41:00,44.7,39.2,29.87,NNW,331,1.0,2.0,81,0.00,,,0.00,Wunderground v.1.15,2013-12-03 20:41:00,
2013-12-03 15:44:00,44.6,39.1,29.87,North,8,2.0,3.0,81,0.00,,,0.00,Wunderground v.1.15,2013-12-03 20:44:00,
2013-12-03 15:45:00,44.6,39.1,29.87,North,356,2.0,3.0,81,0.00,,,0.00,Wunderground v.1.15,2013-12-03 20:45:00,
2013-12-03 15:46:00,44.5,39.0,29.87,NNE,19,1.0,3.0,81,0.00,,,0.00,Wunderground v.1.15,2013-12-03 20:46:00,
2013-12-03 15:49:00,44.3,39.2,29.87,NNE,13,0.0,3.0,82,0.00,,,0.00,Wunderground v.1.15,2013-12-03 20:49:00,
2013-12-03 15:50:00,44.3,39.2,29.87,NNE,13,0.0,1.0,82,0.00,,,0.00,Wunderground v.1.15,2013-12-03 20:50:00,
2013-12-03 15:51:00,44.2,39.1,29.87,NNE,13,0.0,1.0,82,0.00,,,0.00,Wunderground v.1.15,2013-12-03 20:51:00,
2013-12-03 15:52:00,44.1,39.0,29.87,NNE,30,1.0,2.0,82,0.00,,,0.00,Wunderground v.1.15,2013-12-03 20:52:00,
2013-12-03 15:54:00,44.0,38.9,29.87,NE,34,1.0,2.0,82,0.00,,,0.00,Wunderground v.1.15,2013-12-03 20:54:00,
2013-12-03 15:55:00,44.0,39.2,29.88,North,354,1.0,2.0,83,0.00,,,0.00,Wunderground v.1.15,2013-12-03 20:55:00,
2013-12-03 15:56:00,43.9,39.1,29.87,NNE,21,1.0,2.0,83,0.00,,,0.00,Wunderground v.1.15,2013-12-03 20:56:00,
2013-12-03 15:57:00,43.9,39.1,29.88,North,5,0.0,2.0,83,0.00,,,0.00,Wunderground v.1.15,2013-12-03 20:57:00,
2013-12-03 16:00:00,43.7,38.9,29.88,North,356,1.0,1.0,83,0.00,,,0.00,Wunderground v.1.15,2013-12-03 21:00:00,
2013-12-03 16:01:00,43.7,38.9,29.88,NNE,21,1.0,2.0,83,0.00,,,0.00,Wunderground v.1.15,2013-12-03 21:01:00,
2013-12-03 16:03:00,43.6,38.8,29.88,NNE,26,0.0,2.0,83,0.00,,,0.00,Wunderground v.1.15,2013-12-03 21:03:00,
2013-12-03 16:05:00,43.5,39.0,29.88,NE,41,2.0,2.0,84,0.00,,,0.00,Wunderground v.1.15,2013-12-03 21:05:00,
2013-12-03 16:06:00,43.4,38.9,29.88,North,351,0.0,2.0,84,0.00,,,0.00,Wunderground v.1.15,2013-12-03 21:06:00,
2013-12-03 16:08:00,43.3,38.8,29.88,North,11,1.0,2.0,84,0.00,,,0.00,Wunderground v.1.15,2013-12-03 21:08:00,
2013-12-03 16:10:00,43.2,38.7,29.88,NNW,343,1.0,1.0,84,0.00,,,0.00,Wunderground v.1.15,2013-12-03 21:10:00,
2013-12-03 16:11:00,43.1,38.6,29.88,North,349,1.0,1.0,84,0.00,,,0.00,Wunderground v.1.15,2013-12-03 21:11:00,
2013-12-03 16:12:00,43.1,38.6,29.88,North,7,1.0,2.0,84,0.00,,,0.00,Wunderground v.1.15,2013-12-03 21:12:00,
2013-12-03 16:13:00,43.1,38.6,29.88,NNE,21,2.0,2.0,84,0.00,,,0.00,Wunderground v.1.15,2013-12-03 21:13:00,
2013-12-03 16:15:00,43.0,38.5,29.88,North,354,1.0,3.0,84,0.00,,,0.00,Wunderground v.1.15,2013-12-03 21:15:00,
2013-12-03 16:16:00,42.9,38.4,29.88,NNE,19,1.0,3.0,84,0.00,,,0.00,Wunderground v.1.15,2013-12-03 21:16:00,
2013-12-03 16:17:00,42.9,38.7,29.88,NNW,347,1.0,3.0,85,0.00,,,0.00,Wunderground v.1.15,2013-12-03 21:17:00,
2013-12-03 16:18:00,42.8,38.6,29.87,NNW,347,0.0,3.0,85,0.00,,,0.00,Wunderground v.1.15,2013-12-03 21:18:00,
2013-12-03 16:20:00,42.8,38.6,29.87,NNW,348,0.0,1.0,85,0.00,,,0.00,Wunderground v.1.15,2013-12-03 21:20:00,
2013-12-03 16:21:00,42.7,38.5,29.88,NNW,348,0.0,1.0,85,0.00,,,0.00,Wunderground v.1.15,2013-12-03 21:21:00,
2013-12-03 16:22:00,42.6,38.4,29.87,North,349,0.0,1.0,85,0.00,,,0.00,Wunderground v.1.15,2013-12-03 21:22:00,
2013-12-03 16:24:00,42.6,38.4,29.88,NNW,348,0.0,1.0,85,0.00,,,0.00,Wunderground v.1.15,2013-12-03 21:24:00,
2013-12-03 16:25:00,42.5,38.3,29.88,NNW,348,0.0,1.0,85,0.00,,,0.00,Wunderground v.1.15,2013-12-03 21:25:00,
2013-12-03 16:26:00,42.5,38.3,29.88,North,1,0.0,1.0,85,0.00,,,0.00,Wunderground v.1.15,2013-12-03 21:26:00,
2013-12-03 16:27:00,42.4,38.2,29.88,North,349,1.0,1.0,85,0.00,,,0.00,Wunderground v.1.15,2013-12-03 21:27:00,
2013-12-03 16:28:00,42.4,38.2,29.88,North,349,0.0,1.0,85,0.00,,,0.00,Wunderground v.1.15,2013-12-03 21:28:00,
2013-12-03 16:29:00,42.4,38.5,29.88,North,350,0.0,1.0,86,0.00,,,0.00,Wunderground v.1.15,2013-12-03 21:29:00,
2013-12-03 16:30:00,42.3,38.4,29.88,North,350,0.0,1.0,86,0.00,,,0.00,Wunderground v.1.15,2013-12-03 21:30:00,
2013-12-03 16:32:00,42.2,38.3,29.88,North,350,0.0,1.0,86,0.00,,,0.00,Wunderground v.1.15,2013-12-03 21:32:00,
2013-12-03 16:33:00,42.2,38.3,29.88,North,352,1.0,1.0,86,0.00,,,0.00,Wunderground v.1.15,2013-12-03 21:33:00,
2013-12-03 16:34:00,42.1,38.2,29.88,North,352,0.0,1.0,86,0.00,,,0.00,Wunderground v.1.15,2013-12-03 21:34:00,
2013-12-03 16:36:00,42.1,38.2,29.88,North,352,0.0,1.0,86,0.00,,,0.00,Wunderground v.1.15,2013-12-03 21:36:00,
2013-12-03 16:37:00,42.0,38.1,29.88,North,353,0.0,1.0,86,0.00,,,0.00,Wunderground v.1.15,2013-12-03 21:37:00,
2013-12-03 16:38:00,41.9,38.0,29.88,North,352,0.0,1.0,86,0.00,,,0.00,Wunderground v.1.15,2013-12-03 21:38:00,
2013-12-03 16:39:00,41.9,38.0,29.88,North,352,0.0,1.0,86,0.00,,,0.00,Wunderground v.1.15,2013-12-03 21:39:00,
2013-12-03 16:41:00,41.8,37.9,29.88,North,352,0.0,0.0,86,0.00,,,0.00,Wunderground v.1.15,2013-12-03 21:41:00,
2013-12-03 16:42:00,41.8,38.2,29.88,North,352,0.0,0.0,87,0.00,,,0.00,Wunderground v.1.15,2013-12-03 21:42:00,
2013-12-03 16:43:00,41.7,38.1,29.88,North,353,0.0,0.0,87,0.00,,,0.00,Wunderground v.1.15,2013-12-03 21:43:00,
2013-12-03 16:45:00,41.6,38.0,29.88,North,352,0.0,0.0,87,0.00,,,0.00,Wunderground v.1.15,2013-12-03 21:45:00,
2013-12-03 16:46:00,41.6,38.0,29.88,North,353,0.0,0.0,87,0.00,,,0.00,Wunderground v.1.15,2013-12-03 21:46:00,
2013-12-03 16:47:00,41.5,37.9,29.88,North,353,0.0,0.0,87,0.00,,,0.00,Wunderground v.1.15,2013-12-03 21:47:00,
2013-12-03 16:48:00,41.5,37.9,29.88,North,353,0.0,0.0,87,0.00,,,0.00,Wunderground v.1.15,2013-12-03 21:48:00,
2013-12-03 16:49:00,41.5,37.9,29.88,North,353,0.0,0.0,87,0.00,,,0.00,Wunderground v.1.15,2013-12-03 21:49:00,
2013-12-03 16:50:00,41.4,38.1,29.88,North,353,0.0,0.0,88,0.00,,,0.00,Wunderground v.1.15,2013-12-03 21:50:00,
2013-12-03 16:51:00,41.4,38.1,29.88,North,352,0.0,0.0,88,0.00,,,0.00,Wunderground v.1.15,2013-12-03 21:51:00,
2013-12-03 16:52:00,41.3,38.0,29.88,North,352,0.0,0.0,88,0.00,,,0.00,Wunderground v.1.15,2013-12-03 21:52:00,
2013-12-03 16:53:00,41.3,38.0,29.88,North,352,0.0,0.0,88,0.00,,,0.00,Wunderground v.1.15,2013-12-03 21:53:00,
2013-12-03 16:54:00,41.3,38.0,29.88,North,352,0.0,0.0,88,0.00,,,0.00,Wunderground v.1.15,2013-12-03 21:54:00,
2013-12-03 16:55:00,41.2,37.9,29.88,North,352,0.0,0.0,88,0.00,,,0.00,Wunderground v.1.15,2013-12-03 21:55:00,
2013-12-03 16:57:00,41.1,37.8,29.88,North,353,0.0,0.0,88,0.00,,,0.00,Wunderground v.1.15,2013-12-03 21:57:00,
2013-12-03 16:58:00,41.1,37.8,29.88,North,352,0.0,0.0,88,0.00,,,0.00,Wunderground v.1.15,2013-12-03 21:58:00,
2013-12-03 16:59:00,41.1,37.8,29.88,North,353,0.0,0.0,88,0.00,,,0.00,Wunderground v.1.15,2013-12-03 21:59:00,
2013-12-03 17:00:00,41.0,37.7,29.88,North,353,0.0,0.0,88,0.00,,,0.00,Wunderground v.1.15,2013-12-03 22:00:00,
2013-12-03 17:02:00,40.9,37.6,29.88,North,353,0.0,0.0,88,0.00,,,0.00,Wunderground v.1.15,2013-12-03 22:02:00,
2013-12-03 17:03:00,40.9,37.6,29.88,North,353,0.0,0.0,88,0.00,,,0.00,Wunderground v.1.15,2013-12-03 22:03:00,
2013-12-03 17:04:00,40.9,37.9,29.88,North,353,0.0,0.0,89,0.00,,,0.00,Wunderground v.1.15,2013-12-03 22:04:00,
2013-12-03 17:05:00,40.8,37.8,29.88,North,353,0.0,0.0,89,0.00,,,0.00,Wunderground v.1.15,2013-12-03 22:05:00,
2013-12-03 17:07:00,40.8,37.8,29.88,North,352,0.0,0.0,89,0.00,,,0.00,Wunderground v.1.15,2013-12-03 22:07:00,
2013-12-03 17:08:00,40.7,37.7,29.89,North,353,0.0,0.0,89,0.00,,,0.00,Wunderground v.1.15,2013-12-03 22:08:00,
2013-12-03 17:09:00,40.7,37.7,29.89,North,352,0.0,0.0,89,0.00,,,0.00,Wunderground v.1.15,2013-12-03 22:09:00,
2013-12-03 17:10:00,40.6,37.6,29.89,North,352,0.0,0.0,89,0.00,,,0.00,Wunderground v.1.15,2013-12-03 22:10:00,
2013-12-03 17:11:00,40.6,37.6,29.89,North,352,0.0,0.0,89,0.00,,,0.00,Wunderground v.1.15,2013-12-03 22:11:00,
2013-12-03 17:12:00,40.6,37.6,29.89,North,353,0.0,0.0,89,0.00,,,0.00,Wunderground v.1.15,2013-12-03 22:12:00,
2013-12-03 17:13:00,40.6,37.6,29.89,North,353,0.0,0.0,89,0.00,,,0.00,Wunderground v.1.15,2013-12-03 22:13:00,
2013-12-03 17:14:00,40.6,37.6,29.89,North,353,0.0,0.0,89,0.00,,,0.00,Wunderground v.1.15,2013-12-03 22:14:00,
2013-12-03 17:15:00,40.5,37.5,29.89,North,352,0.0,0.0,89,0.00,,,0.00,Wunderground v.1.15,2013-12-03 22:15:00,
2013-12-03 17:17:00,40.5,37.5,29.89,North,352,0.0,0.0,89,0.00,,,0.00,Wunderground v.1.15,2013-12-03 22:17:00,
2013-12-03 17:19:00,40.5,37.8,29.89,North,352,0.0,0.0,90,0.00,,,0.00,Wunderground v.1.15,2013-12-03 22:19:00,
2013-12-03 17:21:00,40.4,37.7,29.89,North,352,0.0,0.0,90,0.00,,,0.00,Wunderground v.1.15,2013-12-03 22:21:00,
2013-12-03 17:22:00,40.4,37.7,29.89,North,352,0.0,0.0,90,0.00,,,0.00,Wunderground v.1.15,2013-12-03 22:22:00,
2013-12-03 17:23:00,40.4,37.7,29.89,North,352,0.0,0.0,90,0.00,,,0.00,Wunderground v.1.15,2013-12-03 22:23:00,
2013-12-03 17:24:00,40.3,37.6,29.89,North,352,0.0,0.0,90,0.00,,,0.00,Wunderground v.1.15,2013-12-03 22:24:00,
2013-12-03 17:26:00,40.3,37.6,29.89,North,352,0.0,0.0,90,0.00,,,0.00,Wunderground v.1.15,2013-12-03 22:26:00,
2013-12-03 17:27:00,40.3,37.6,29.89,North,353,0.0,0.0,90,0.00,,,0.00,Wunderground v.1.15,2013-12-03 22:27:00,
2013-12-03 17:28:00,40.3,37.6,29.89,North,352,0.0,0.0,90,0.00,,,0.00,Wunderground v.1.15,2013-12-03 22:28:00,
2013-12-03 17:29:00,40.2,37.5,29.89,North,352,0.0,0.0,90,0.00,,,0.00,Wunderground v.1.15,2013-12-03 22:29:00,
2013-12-03 17:31:00,40.2,37.5,29.89,North,353,0.0,0.0,90,0.00,,,0.00,Wunderground v.1.15,2013-12-03 22:31:00,
2013-12-03 17:32:00,40.1,37.4,29.89,North,352,0.0,0.0,90,0.00,,,0.00,Wunderground v.1.15,2013-12-03 22:32:00,
2013-12-03 17:33:00,40.1,37.4,29.89,North,352,0.0,0.0,90,0.00,,,0.00,Wunderground v.1.15,2013-12-03 22:33:00,
2013-12-03 17:34:00,40.1,37.4,29.89,North,352,0.0,0.0,90,0.00,,,0.00,Wunderground v.1.15,2013-12-03 22:34:00,
2013-12-03 17:35:00,40.1,37.4,29.89,North,352,0.0,0.0,90,0.00,,,0.00,Wunderground v.1.15,2013-12-03 22:35:00,
2013-12-03 17:36:00,40.0,37.3,29.89,North,352,0.0,0.0,90,0.00,,,0.00,Wunderground v.1.15,2013-12-03 22:36:00,
2013-12-03 17:37:00,40.0,37.3,29.89,North,353,0.0,0.0,90,0.00,,,0.00,Wunderground v.1.15,2013-12-03 22:37:00,
2013-12-03 17:38:00,40.0,37.3,29.89,North,352,0.0,0.0,90,0.00,,,0.00,Wunderground v.1.15,2013-12-03 22:38:00,
2013-12-03 17:39:00,40.0,37.3,29.90,North,352,0.0,0.0,90,0.00,,,0.00,Wunderground v.1.15,2013-12-03 22:39:00,
2013-12-03 17:40:00,40.0,37.3,29.90,North,352,0.0,0.0,90,0.00,,,0.00,Wunderground v.1.15,2013-12-03 22:40:00,
2013-12-03 17:41:00,39.9,37.2,29.90,North,353,0.0,0.0,90,0.00,,,0.00,Wunderground v.1.15,2013-12-03 22:41:00,
2013-12-03 17:42:00,39.9,37.2,29.90,North,353,0.0,0.0,90,0.00,,,0.00,Wunderground v.1.15,2013-12-03 22:42:00,
2013-12-03 17:44:00,39.9,37.5,29.90,North,352,0.0,0.0,91,0.00,,,0.00,Wunderground v.1.15,2013-12-03 22:44:00,
2013-12-03 17:45:00,39.9,37.5,29.90,North,352,0.0,0.0,91,0.00,,,0.00,Wunderground v.1.15,2013-12-03 22:45:00,
2013-12-03 17:46:00,39.8,37.4,29.90,North,352,0.0,0.0,91,0.00,,,0.00,Wunderground v.1.15,2013-12-03 22:46:00,
2013-12-03 17:47:00,39.9,37.5,29.91,North,352,0.0,0.0,91,0.00,,,0.00,Wunderground v.1.15,2013-12-03 22:47:00,
2013-12-03 17:49:00,39.8,37.4,29.90,North,352,0.0,0.0,91,0.00,,,0.00,Wunderground v.1.15,2013-12-03 22:49:00,
2013-12-03 17:50:00,39.7,37.3,29.90,North,353,0.0,0.0,91,0.00,,,0.00,Wunderground v.1.15,2013-12-03 22:50:00,
2013-12-03 17:51:00,39.7,37.3,29.91,North,352,0.0,0.0,91,0.00,,,0.00,Wunderground v.1.15,2013-12-03 22:51:00,
2013-12-03 17:52:00,39.7,37.3,29.91,North,353,0.0,0.0,91,0.00,,,0.00,Wunderground v.1.15,2013-12-03 22:52:00,
2013-12-03 17:54:00,39.6,37.2,29.91,North,353,0.0,0.0,91,0.00,,,0.00,Wunderground v.1.15,2013-12-03 22:54:00,
2013-12-03 17:56:00,39.5,37.1,29.91,North,352,0.0,0.0,91,0.00,,,0.00,Wunderground v.1.15,2013-12-03 22:56:00,
2013-12-03 17:57:00,39.4,37.0,29.91,North,353,0.0,0.0,91,0.00,,,0.00,Wunderground v.1.15,2013-12-03 22:57:00,
2013-12-03 18:00:00,39.3,36.9,29.91,North,352,0.0,0.0,91,0.00,,,0.00,Wunderground v.1.15,2013-12-03 23:00:00,
2013-12-03 18:01:00,39.3,36.9,29.91,North,352,0.0,0.0,91,0.00,,,0.00,Wunderground v.1.15,2013-12-03 23:01:00,
2013-12-03 18:03:00,39.3,36.9,29.91,North,352,0.0,0.0,91,0.00,,,0.00,Wunderground v.1.15,2013-12-03 23:03:00,
2013-12-03 18:05:00,39.2,36.8,29.91,North,353,0.0,0.0,91,0.00,,,0.00,Wunderground v.1.15,2013-12-03 23:05:00,
2013-12-03 18:06:00,39.1,36.7,29.91,North,352,0.0,0.0,91,0.00,,,0.00,Wunderground v.1.15,2013-12-03 23:06:00,
2013-12-03 18:07:00,39.1,36.7,29.92,North,353,0.0,0.0,91,0.00,,,0.00,Wunderground v.1.15,2013-12-03 23:07:00,
2013-12-03 18:08:00,39.1,36.7,29.92,North,352,0.0,0.0,91,0.00,,,0.00,Wunderground v.1.15,2013-12-03 23:08:00,
2013-12-03 18:09:00,39.0,36.6,29.92,North,353,0.0,0.0,91,0.00,,,0.00,Wunderground v.1.15,2013-12-03 23:09:00,
2013-12-03 18:10:00,39.0,36.6,29.92,North,353,0.0,0.0,91,0.00,,,0.00,Wunderground v.1.15,2013-12-03 23:10:00,
2013-12-03 18:11:00,39.0,36.6,29.92,North,353,0.0,0.0,91,0.00,,,0.00,Wunderground v.1.15,2013-12-03 23:11:00,
2013-12-03 18:13:00,38.9,36.8,29.92,North,352,0.0,0.0,92,0.00,,,0.00,Wunderground v.1.15,2013-12-03 23:13:00,
2013-12-03 18:14:00,38.9,36.8,29.92,North,352,0.0,0.0,92,0.00,,,0.00,Wunderground v.1.15,2013-12-03 23:14:00,
2013-12-03 18:15:00,38.9,36.8,29.91,North,352,0.0,0.0,92,0.00,,,0.00,Wunderground v.1.15,2013-12-03 23:15:00,
2013-12-03 18:16:00,38.9,36.8,29.91,North,353,0.0,0.0,92,0.00,,,0.00,Wunderground v.1.15,2013-12-03 23:16:00,
2013-12-03 18:18:00,38.9,36.8,29.91,North,353,0.0,0.0,92,0.00,,,0.00,Wunderground v.1.15,2013-12-03 23:18:00,
2013-12-03 18:19:00,38.8,36.7,29.91,North,352,0.0,0.0,92,0.00,,,0.00,Wunderground v.1.15,2013-12-03 23:19:00,
2013-12-03 18:20:00,38.8,36.7,29.92,North,352,0.0,0.0,92,0.00,,,0.00,Wunderground v.1.15,2013-12-03 23:20:00,
2013-12-03 18:21:00,38.7,36.6,29.92,North,352,0.0,0.0,92,0.00,,,0.00,Wunderground v.1.15,2013-12-03 23:21:00,
2013-12-03 18:23:00,38.6,36.5,29.92,North,352,0.0,0.0,92,0.00,,,0.00,Wunderground v.1.15,2013-12-03 23:23:00,
2013-12-03 18:24:00,38.6,36.5,29.92,North,353,0.0,0.0,92,0.00,,,0.00,Wunderground v.1.15,2013-12-03 23:24:00,
2013-12-03 18:25:00,38.6,36.5,29.92,North,353,0.0,0.0,92,0.00,,,0.00,Wunderground v.1.15,2013-12-03 23:25:00,
2013-12-03 18:26:00,38.6,36.5,29.92,North,352,0.0,0.0,92,0.00,,,0.00,Wunderground v.1.15,2013-12-03 23:26:00,
2013-12-03 18:28:00,38.6,36.5,29.92,North,353,0.0,0.0,92,0.00,,,0.00,Wunderground v.1.15,2013-12-03 23:28:00,
2013-12-03 18:29:00,38.6,36.5,29.92,North,352,0.0,0.0,92,0.00,,,0.00,Wunderground v.1.15,2013-12-03 23:29:00,
2013-12-03 18:30:00,38.6,36.5,29.92,North,352,0.0,0.0,92,0.00,,,0.00,Wunderground v.1.15,2013-12-03 23:30:00,
2013-12-03 18:31:00,38.6,36.5,29.92,North,352,0.0,0.0,92,0.00,,,0.00,Wunderground v.1.15,2013-12-03 23:31:00,
2013-12-03 18:33:00,38.5,36.4,29.92,North,352,0.0,0.0,92,0.00,,,0.00,Wunderground v.1.15,2013-12-03 23:33:00,
2013-12-03 18:34:00,38.6,36.5,29.92,North,352,0.0,0.0,92,0.00,,,0.00,Wunderground v.1.15,2013-12-03 23:34:00,
2013-12-03 18:35:00,38.5,36.4,29.92,North,352,0.0,0.0,92,0.00,,,0.00,Wunderground v.1.15,2013-12-03 23:35:00,
2013-12-03 18:37:00,38.5,36.7,29.92,North,352,0.0,0.0,93,0.00,,,0.00,Wunderground v.1.15,2013-12-03 23:37:00,
2013-12-03 18:38:00,38.4,36.3,29.92,North,352,0.0,0.0,92,0.00,,,0.00,Wunderground v.1.15,2013-12-03 23:38:00,
2013-12-03 18:40:00,38.3,36.2,29.92,North,352,0.0,0.0,92,0.00,,,0.00,Wunderground v.1.15,2013-12-03 23:40:00,
2013-12-03 18:41:00,38.3,36.5,29.92,North,352,0.0,0.0,93,0.00,,,0.00,Wunderground v.1.15,2013-12-03 23:41:00,
2013-12-03 18:42:00,38.2,36.4,29.92,North,352,0.0,0.0,93,0.00,,,0.00,Wunderground v.1.15,2013-12-03 23:42:00,
2013-12-03 18:43:00,38.1,36.3,29.92,North,352,0.0,0.0,93,0.00,,,0.00,Wunderground v.1.15,2013-12-03 23:43:00,
2013-12-03 18:45:00,38.0,36.2,29.92,North,352,0.0,0.0,93,0.00,,,0.00,Wunderground v.1.15,2013-12-03 23:45:00,
2013-12-03 18:46:00,38.0,36.2,29.92,North,352,0.0,0.0,93,0.00,,,0.00,Wunderground v.1.15,2013-12-03 23:46:00,
2013-12-03 18:47:00,38.0,36.2,29.92,North,352,0.0,0.0,93,0.00,,,0.00,Wunderground v.1.15,2013-12-03 23:47:00,
2013-12-03 18:49:00,38.0,36.2,29.92,North,353,0.0,0.0,93,0.00,,,0.00,Wunderground v.1.15,2013-12-03 23:49:00,
2013-12-03 18:50:00,38.1,36.5,29.92,North,353,0.0,0.0,94,0.00,,,0.00,Wunderground v.1.15,2013-12-03 23:50:00,
2013-12-03 18:51:00,38.1,36.5,29.92,North,352,0.0,0.0,94,0.00,,,0.00,Wunderground v.1.15,2013-12-03 23:51:00,
2013-12-03 18:52:00,38.1,36.5,29.92,North,352,0.0,0.0,94,0.00,,,0.00,Wunderground v.1.15,2013-12-03 23:52:00,
2013-12-03 18:54:00,38.1,36.5,29.92,North,352,0.0,0.0,94,0.00,,,0.00,Wunderground v.1.15,2013-12-03 23:54:00,
2013-12-03 18:56:00,38.1,36.5,29.92,North,352,0.0,0.0,94,0.00,,,0.00,Wunderground v.1.15,2013-12-03 23:56:00,
2013-12-03 18:57:00,38.1,36.5,29.92,North,352,0.0,0.0,94,0.00,,,0.00,Wunderground v.1.15,2013-12-03 23:57:00,
2013-12-03 18:59:00,38.2,36.6,29.93,NW,323,0.0,0.0,94,0.00,,,0.00,Wunderground v.1.15,2013-12-03 23:59:00,
2013-12-03 19:01:00,38.2,36.6,29.92,NW,321,0.0,0.0,94,0.00,,,0.00,Wunderground v.1.15,2013-12-04 00:01:00,
2013-12-03 19:02:00,38.3,36.7,29.92,NW,321,0.0,0.0,94,0.00,,,0.00,Wunderground v.1.15,2013-12-04 00:02:00,
2013-12-03 19:05:00,38.4,37.1,29.93,NW,309,0.0,0.0,95,0.00,,,0.00,Wunderground v.1.15,2013-12-04 00:05:00,
2013-12-03 19:06:00,38.5,37.2,29.93,NW,309,0.0,0.0,95,0.00,,,0.00,Wunderground v.1.15,2013-12-04 00:06:00,
2013-12-03 19:07:00,38.5,36.9,29.93,NW,309,0.0,0.0,94,0.00,,,0.00,Wunderground v.1.15,2013-12-04 00:07:00,
2013-12-03 19:08:00,38.5,36.9,29.93,NW,309,0.0,0.0,94,0.00,,,0.00,Wunderground v.1.15,2013-12-04 00:08:00,
2013-12-03 19:10:00,38.6,37.0,29.93,NW,309,0.0,0.0,94,0.00,,,0.00,Wunderground v.1.15,2013-12-04 00:10:00,
2013-12-03 19:11:00,38.7,37.1,29.93,NW,309,0.0,0.0,94,0.00,,,0.00,Wunderground v.1.15,2013-12-04 00:11:00,
2013-12-03 19:13:00,38.8,37.2,29.93,NW,309,0.0,0.0,94,0.00,,,0.00,Wunderground v.1.15,2013-12-04 00:13:00,
2013-12-03 19:15:00,38.8,37.2,29.93,NW,309,0.0,0.0,94,0.00,,,0.00,Wunderground v.1.15,2013-12-04 00:15:00,
2013-12-03 19:16:00,38.9,37.3,29.93,NW,309,0.0,0.0,94,0.00,,,0.00,Wunderground v.1.15,2013-12-04 00:16:00,
2013-12-03 19:17:00,38.9,37.3,29.93,NW,309,0.0,0.0,94,0.00,,,0.00,Wunderground v.1.15,2013-12-04 00:17:00,
2013-12-03 19:18:00,38.9,37.0,29.93,NW,309,0.0,0.0,93,0.00,,,0.00,Wunderground v.1.15,2013-12-04 00:18:00,
2013-12-03 19:20:00,39.0,37.1,29.93,NW,309,0.0,0.0,93,0.00,,,0.00,Wunderground v.1.15,2013-12-04 00:20:00,
2013-12-03 19:21:00,39.0,37.1,29.93,NW,309,0.0,0.0,93,0.00,,,0.00,Wunderground v.1.15,2013-12-04 00:21:00,
2013-12-03 19:23:00,39.1,37.2,29.93,NW,309,0.0,1.0,93,0.00,,,0.00,Wunderground v.1.15,2013-12-04 00:23:00,
2013-12-03 19:25:00,39.1,37.0,29.93,NW,309,0.0,1.0,92,0.00,,,0.00,Wunderground v.1.15,2013-12-04 00:25:00,
2013-12-03 19:26:00,39.1,37.0,29.93,NW,309,0.0,1.0,92,0.00,,,0.00,Wunderground v.1.15,2013-12-04 00:26:00,
2013-12-03 19:28:00,39.2,37.1,29.93,NW,309,0.0,1.0,92,0.00,,,0.00,Wunderground v.1.15,2013-12-04 00:28:00,
2013-12-03 19:29:00,39.2,37.1,29.93,NW,309,0.0,1.0,92,0.00,,,0.00,Wunderground v.1.15,2013-12-04 00:29:00,
2013-12-03 19:30:00,39.2,37.1,29.93,NW,309,0.0,0.0,92,0.00,,,0.00,Wunderground v.1.15,2013-12-04 00:30:00,
2013-12-03 19:31:00,39.3,37.2,29.93,NW,309,0.0,0.0,92,0.00,,,0.00,Wunderground v.1.15,2013-12-04 00:31:00,
2013-12-03 19:33:00,39.3,37.2,29.93,NW,309,0.0,0.0,92,0.00,,,0.00,Wunderground v.1.15,2013-12-04 00:33:00,
2013-12-03 19:34:00,39.3,36.9,29.93,NW,309,0.0,0.0,91,0.00,,,0.00,Wunderground v.1.15,2013-12-04 00:34:00,
2013-12-03 19:36:00,39.3,36.9,29.93,NW,309,0.0,0.0,91,0.00,,,0.00,Wunderground v.1.15,2013-12-04 00:36:00,
2013-12-03 19:37:00,39.4,37.0,29.93,NW,309,0.0,0.0,91,0.00,,,0.00,Wunderground v.1.15,2013-12-04 00:37:00,
2013-12-03 19:39:00,39.3,36.9,29.92,NW,309,0.0,0.0,91,0.00,,,0.00,Wunderground v.1.15,2013-12-04 00:39:00,
2013-12-03 19:41:00,39.3,36.6,29.92,NW,309,0.0,0.0,90,0.00,,,0.00,Wunderground v.1.15,2013-12-04 00:41:00,
2013-12-03 19:42:00,39.3,36.6,29.92,NW,309,0.0,0.0,90,0.00,,,0.00,Wunderground v.1.15,2013-12-04 00:42:00,
2013-12-03 19:44:00,39.2,36.5,29.92,NW,309,0.0,0.0,90,0.00,,,0.00,Wunderground v.1.15,2013-12-04 00:44:00,
2013-12-03 19:45:00,39.2,36.5,29.92,NW,309,0.0,0.0,90,0.00,,,0.00,Wunderground v.1.15,2013-12-04 00:45:00,
2013-12-03 19:46:00,39.2,36.5,29.92,NW,309,0.0,0.0,90,0.00,,,0.00,Wunderground v.1.15,2013-12-04 00:46:00,
2013-12-03 19:47:00,39.2,36.5,29.92,NW,309,0.0,0.0,90,0.00,,,0.00,Wunderground v.1.15,2013-12-04 00:47:00,
2013-12-03 19:49:00,39.2,36.5,29.92,NW,309,0.0,0.0,90,0.00,,,0.00,Wunderground v.1.15,2013-12-04 00:49:00,
2013-12-03 19:50:00,39.2,36.5,29.93,NW,309,0.0,0.0,90,0.00,,,0.00,Wunderground v.1.15,2013-12-04 00:50:00,
2013-12-03 19:51:00,39.2,36.5,29.93,NW,309,0.0,0.0,90,0.00,,,0.00,Wunderground v.1.15,2013-12-04 00:51:00,
2013-12-03 19:52:00,39.1,36.4,29.92,NW,309,0.0,0.0,90,0.00,,,0.00,Wunderground v.1.15,2013-12-04 00:52:00,
2013-12-03 19:54:00,39.2,36.5,29.92,NW,309,0.0,0.0,90,0.00,,,0.00,Wunderground v.1.15,2013-12-04 00:54:00,
2013-12-03 19:55:00,39.2,36.5,29.92,NW,309,0.0,0.0,90,0.00,,,0.00,Wunderground v.1.15,2013-12-04 00:55:00,
2013-12-03 19:56:00,39.2,36.5,29.92,NW,309,0.0,0.0,90,0.00,,,0.00,Wunderground v.1.15,2013-12-04 00:56:00,
2013-12-03 19:57:00,39.2,36.5,29.93,NW,309,0.0,0.0,90,0.00,,,0.00,Wunderground v.1.15,2013-12-04 00:57:00,
2013-12-03 19:59:00,39.3,36.6,29.93,NW,309,0.0,0.0,90,0.00,,,0.00,Wunderground v.1.15,2013-12-04 00:59:00,
2013-12-03 20:00:00,39.3,36.6,29.92,NW,309,0.0,0.0,90,0.00,,,0.00,Wunderground v.1.15,2013-12-04 01:00:00,
2013-12-03 20:01:00,39.4,36.4,29.92,NW,309,1.0,1.0,89,0.00,,,0.00,Wunderground v.1.15,2013-12-04 01:01:00,
2013-12-03 20:02:00,39.5,36.5,29.93,NW,309,0.0,1.0,89,0.00,,,0.00,Wunderground v.1.15,2013-12-04 01:02:00,
2013-12-03 20:04:00,39.5,36.5,29.93,NW,309,0.0,1.0,89,0.00,,,0.00,Wunderground v.1.15,2013-12-04 01:04:00,
2013-12-03 20:05:00,39.5,36.2,29.93,NW,309,1.0,1.0,88,0.00,,,0.00,Wunderground v.1.15,2013-12-04 01:05:00,
2013-12-03 20:06:00,39.5,36.2,29.93,NW,309,1.0,1.0,88,0.00,,,0.00,Wunderground v.1.15,2013-12-04 01:06:00,
2013-12-03 20:07:00,39.5,36.2,29.93,NW,307,1.0,2.0,88,0.00,,,0.00,Wunderground v.1.15,2013-12-04 01:07:00,
2013-12-03 20:08:00,39.5,36.2,29.93,NW,307,1.0,2.0,88,0.00,,,0.00,Wunderground v.1.15,2013-12-04 01:08:00,
2013-12-03 20:09:00,39.4,36.1,29.93,NW,307,1.0,1.0,88,0.00,,,0.00,Wunderground v.1.15,2013-12-04 01:09:00,
2013-12-03 20:11:00,39.4,36.1,29.93,WNW,302,1.0,2.0,88,0.00,,,0.00,Wunderground v.1.15,2013-12-04 01:11:00,
2013-12-03 20:12:00,39.4,36.1,29.93,WNW,301,1.0,2.0,88,0.00,,,0.00,Wunderground v.1.15,2013-12-04 01:12:00,
2013-12-03 20:13:00,39.4,36.1,29.93,WNW,291,1.0,2.0,88,0.00,,,0.00,Wunderground v.1.15,2013-12-04 01:13:00,
2013-12-03 20:15:00,39.5,36.2,29.93,WNW,288,1.0,2.0,88,0.00,,,0.00,Wunderground v.1.15,2013-12-04 01:15:00,
2013-12-03 20:16:00,39.5,36.2,29.93,WNW,287,1.0,2.0,88,0.00,,,0.00,Wunderground v.1.15,2013-12-04 01:16:00,
2013-12-03 20:17:00,39.5,36.2,29.93,WNW,287,1.0,2.0,88,0.00,,,0.00,Wunderground v.1.15,2013-12-04 01:17:00,
2013-12-03 20:18:00,39.5,36.2,29.93,WNW,288,0.0,2.0,88,0.00,,,0.00,Wunderground v.1.15,2013-12-04 01:18:00,
2013-12-03 20:21:00,39.5,36.2,29.93,WNW,290,1.0,2.0,88,0.00,,,0.00,Wunderground v.1.15,2013-12-04 01:21:00,
2013-12-03 20:22:00,39.6,36.3,29.93,WNW,290,0.0,2.0,88,0.00,,,0.00,Wunderground v.1.15,2013-12-04 01:22:00,
2013-12-03 20:23:00,39.6,36.3,29.93,WNW,289,1.0,2.0,88,0.00,,,0.00,Wunderground v.1.15,2013-12-04 01:23:00,
2013-12-03 20:24:00,39.6,36.0,29.93,WNW,295,2.0,2.0,87,0.00,,,0.00,Wunderground v.1.15,2013-12-04 01:24:00,
2013-12-03 20:27:00,40.0,36.4,29.94,WNW,290,1.0,3.0,87,0.00,,,0.00,Wunderground v.1.15,2013-12-04 01:27:00,
2013-12-03 20:28:00,40.0,36.4,29.93,WNW,284,1.0,3.0,87,0.00,,,0.00,Wunderground v.1.15,2013-12-04 01:28:00,
2013-12-03 20:29:00,40.1,36.5,29.94,WNW,283,1.0,3.0,87,0.00,,,0.00,Wunderground v.1.15,2013-12-04 01:29:00,
2013-12-03 20:32:00,40.3,36.4,29.94,WNW,300,1.0,4.0,86,0.00,,,0.00,Wunderground v.1.15,2013-12-04 01:32:00,
2013-12-03 20:33:00,40.4,36.5,29.94,WNW,297,1.0,4.0,86,0.00,,,0.00,Wunderground v.1.15,2013-12-04 01:33:00,
2013-12-03 20:34:00,40.4,36.5,29.94,WNW,295,1.0,4.0,86,0.00,,,0.00,Wunderground v.1.15,2013-12-04 01:34:00,
2013-12-03 20:38:00,40.6,36.4,29.94,NW,307,2.0,4.0,85,0.00,,,0.00,Wunderground v.1.15,2013-12-04 01:38:00,
2013-12-03 20:39:00,40.6,36.4,29.94,WNW,293,3.0,4.0,85,0.00,,,0.00,Wunderground v.1.15,2013-12-04 01:39:00,
2013-12-03 20:43:00,40.8,36.6,29.94,NW,304,2.0,4.0,85,0.00,,,0.00,Wunderground v.1.15,2013-12-04 01:43:00,
2013-12-03 20:44:00,40.9,36.7,29.94,West,281,2.0,4.0,85,0.00,,,0.00,Wunderground v.1.15,2013-12-04 01:44:00,
2013-12-03 20:48:00,41.0,36.8,29.94,West,281,2.0,5.0,85,0.00,,,0.00,Wunderground v.1.15,2013-12-04 01:48:00,
2013-12-03 20:49:00,41.0,36.5,29.94,West,274,2.0,5.0,84,0.00,,,0.00,Wunderground v.1.15,2013-12-04 01:49:00,
2013-12-03 20:54:00,41.1,36.9,29.95,WNW,282,1.0,4.0,85,0.00,,,0.00,Wunderground v.1.15,2013-12-04 01:54:00,
2013-12-03 20:59:00,41.1,36.6,29.95,WNW,298,2.0,4.0,84,0.00,,,0.00,Wunderground v.1.15,2013-12-04 01:59:00,
2013-12-03 21:04:00,41.3,36.8,29.95,WNW,293,3.0,4.0,84,0.00,,,0.00,Wunderground v.1.15,2013-12-04 02:04:00,
2013-12-03 21:05:00,41.3,36.8,29.95,WNW,301,4.0,4.0,84,0.00,,,0.00,Wunderground v.1.15,2013-12-04 02:05:00,
2013-12-03 21:09:00,41.3,36.8,29.95,NW,304,2.0,6.0,84,0.00,,,0.00,Wunderground v.1.15,2013-12-04 02:09:00,
2013-12-03 21:10:00,41.3,36.8,29.95,WSW,256,2.0,5.0,84,0.00,,,0.00,Wunderground v.1.15,2013-12-04 02:10:00,
2013-12-03 21:14:00,41.4,36.9,29.95,West,271,2.0,5.0,84,0.00,,,0.00,Wunderground v.1.15,2013-12-04 02:14:00,
2013-12-03 21:15:00,41.4,36.9,29.95,WNW,303,3.0,5.0,84,0.00,,,0.00,Wunderground v.1.15,2013-12-04 02:15:00,
2013-12-03 21:19:00,41.5,37.0,29.95,NW,311,2.0,5.0,84,0.00,,,0.00,Wunderground v.1.15,2013-12-04 02:19:00,
2013-12-03 21:20:00,41.5,37.0,29.95,WNW,297,2.0,3.0,84,0.00,,,0.00,Wunderground v.1.15,2013-12-04 02:20:00,
2013-12-03 21:21:00,41.5,37.0,29.95,WNW,297,1.0,4.0,84,0.00,,,0.00,Wunderground v.1.15,2013-12-04 02:21:00,
2013-12-03 21:24:00,41.4,36.9,29.95,WNW,295,3.0,4.0,84,0.00,,,0.00,Wunderground v.1.15,2013-12-04 02:24:00,
2013-12-03 21:25:00,41.4,36.9,29.95,WNW,291,2.0,4.0,84,0.00,,,0.00,Wunderground v.1.15,2013-12-04 02:25:00,
2013-12-03 21:26:00,41.4,36.9,29.95,WNW,292,2.0,4.0,84,0.00,,,0.00,Wunderground v.1.15,2013-12-04 02:26:00,
2013-12-03 21:29:00,41.3,36.8,29.95,WNW,294,2.0,4.0,84,0.00,,,0.00,Wunderground v.1.15,2013-12-04 02:29:00,
2013-12-03 21:30:00,41.3,36.8,29.95,WNW,295,2.0,3.0,84,0.00,,,0.00,Wunderground v.1.15,2013-12-04 02:30:00,
2013-12-03 21:31:00,41.3,36.8,29.95,WNW,297,2.0,4.0,84,0.00,,,0.00,Wunderground v.1.15,2013-12-04 02:31:00,
2013-12-03 21:32:00,41.3,36.8,29.95,WNW,288,1.0,4.0,84,0.00,,,0.00,Wunderground v.1.15,2013-12-04 02:32:00,
2013-12-03 21:35:00,41.2,36.7,29.95,WNW,303,2.0,4.0,84,0.00,,,0.00,Wunderground v.1.15,2013-12-04 02:35:00,
2013-12-03 21:36:00,41.2,37.0,29.95,WNW,283,2.0,4.0,85,0.00,,,0.00,Wunderground v.1.15,2013-12-04 02:36:00,
2013-12-03 21:37:00,41.2,37.0,29.95,WNW,285,2.0,4.0,85,0.00,,,0.00,Wunderground v.1.15,2013-12-04 02:37:00,
2013-12-03 21:40:00,41.1,36.9,29.95,WNW,302,3.0,3.0,85,0.00,,,0.00,Wunderground v.1.15,2013-12-04 02:40:00,
2013-12-03 21:41:00,41.1,36.9,29.95,WNW,301,2.0,3.0,85,0.00,,,0.00,Wunderground v.1.15,2013-12-04 02:41:00,
2013-12-03 21:42:00,41.1,36.9,29.95,WNW,298,3.0,4.0,85,0.00,,,0.00,Wunderground v.1.15,2013-12-04 02:42:00,
2013-12-03 21:44:00,41.1,36.6,29.96,WNW,282,1.0,4.0,84,0.00,,,0.00,Wunderground v.1.15,2013-12-04 02:44:00,
2013-12-03 21:45:00,41.1,36.9,29.96,WNW,303,2.0,4.0,85,0.00,,,0.00,Wunderground v.1.15,2013-12-04 02:45:00,
2013-12-03 21:46:00,41.1,36.9,29.96,NW,309,6.0,6.0,85,0.00,,,0.00,Wunderground v.1.15,2013-12-04 02:46:00,
2013-12-03 21:48:00,41.1,36.6,29.96,West,274,3.0,6.0,84,0.00,,,0.00,Wunderground v.1.15,2013-12-04 02:48:00,
2013-12-03 21:50:00,41.1,36.6,29.96,WNW,294,3.0,3.0,84,0.00,,,0.00,Wunderground v.1.15,2013-12-04 02:50:00,
2013-12-03 21:51:00,41.2,36.7,29.96,WNW,292,3.0,3.0,84,0.00,,,0.00,Wunderground v.1.15,2013-12-04 02:51:00,
2013-12-03 21:52:00,41.2,36.7,29.96,WNW,298,2.0,3.0,84,0.00,,,0.00,Wunderground v.1.15,2013-12-04 02:52:00,
2013-12-03 21:53:00,41.1,36.6,29.96,WNW,295,2.0,3.0,84,0.00,,,0.00,Wunderground v.1.15,2013-12-04 02:53:00,
2013-12-03 21:55:00,41.1,36.6,29.96,NW,304,3.0,4.0,84,0.00,,,0.00,Wunderground v.1.15,2013-12-04 02:55:00,
2013-12-03 21:56:00,41.1,36.6,29.96,WNW,301,4.0,4.0,84,0.00,,,0.00,Wunderground v.1.15,2013-12-04 02:56:00,
2013-12-03 21:57:00,41.1,36.6,29.96,NW,308,3.0,4.0,84,0.00,,,0.00,Wunderground v.1.15,2013-12-04 02:57:00,
2013-12-03 21:58:00,41.1,36.6,29.96,WNW,297,1.0,4.0,84,0.00,,,0.00,Wunderground v.1.15,2013-12-04 02:58:00,
2013-12-03 22:00:00,41.1,36.6,29.96,WNW,295,2.0,3.0,84,0.00,,,0.00,Wunderground v.1.15,2013-12-04 03:00:00,
2013-12-03 22:01:00,41.1,36.6,29.96,WNW,285,3.0,3.0,84,0.00,,,0.00,Wunderground v.1.15,2013-12-04 03:01:00,
2013-12-03 22:02:00,41.1,36.9,29.96,NW,307,4.0,4.0,85,0.00,,,0.00,Wunderground v.1.15,2013-12-04 03:02:00,
2013-12-03 22:04:00,41.0,36.5,29.96,WNW,301,3.0,5.0,84,0.00,,,0.00,Wunderground v.1.15,2013-12-04 03:04:00,
2013-12-03 22:05:00,41.0,36.5,29.95,WNW,287,2.0,5.0,84,0.00,,,0.00,Wunderground v.1.15,2013-12-04 03:05:00,
2013-12-03 22:06:00,41.0,36.5,29.95,NW,326,1.0,5.0,84,0.00,,,0.00,Wunderground v.1.15,2013-12-04 03:06:00,
2013-12-03 22:07:00,41.0,36.5,29.96,WNW,297,3.0,5.0,84,0.00,,,0.00,Wunderground v.1.15,2013-12-04 03:07:00,
2013-12-03 22:08:00,40.9,36.4,29.96,WNW,297,1.0,5.0,84,0.00,,,0.00,Wunderground v.1.15,2013-12-04 03:08:00,
2013-12-03 22:09:00,40.9,36.4,29.95,NW,304,3.0,5.0,84,0.00,,,0.00,Wunderground v.1.15,2013-12-04 03:09:00,
2013-12-03 22:10:00,40.9,36.4,29.95,WNW,303,2.0,3.0,84,0.00,,,0.00,Wunderground v.1.15,2013-12-04 03:10:00,
2013-12-03 22:11:00,40.9,36.4,29.95,WNW,301,1.0,3.0,84,0.00,,,0.00,Wunderground v.1.15,2013-12-04 03:11:00,
2013-12-03 22:12:00,40.9,36.4,29.95,WNW,295,3.0,3.0,84,0.00,,,0.00,Wunderground v.1.15,2013-12-04 03:12:00,
2013-12-03 22:14:00,40.8,36.3,29.96,WNW,298,3.0,4.0,84,0.00,,,0.00,Wunderground v.1.15,2013-12-04 03:14:00,
2013-12-03 22:15:00,40.8,36.6,29.96,WNW,288,2.0,4.0,85,0.00,,,0.00,Wunderground v.1.15,2013-12-04 03:15:00,
2013-12-03 22:16:00,40.7,36.5,29.96,WNW,293,3.0,4.0,85,0.00,,,0.00,Wunderground v.1.15,2013-12-04 03:16:00,
2013-12-03 22:17:00,40.7,36.5,29.96,WNW,290,2.0,4.0,85,0.00,,,0.00,Wunderground v.1.15,2013-12-04 03:17:00,
2013-12-03 22:19:00,40.7,36.5,29.96,West,277,1.0,4.0,85,0.00,,,0.00,Wunderground v.1.15,2013-12-04 03:19:00,
2013-12-03 22:20:00,40.6,36.4,29.96,WNW,301,4.0,5.0,85,0.00,,,0.00,Wunderground v.1.15,2013-12-04 03:20:00,
2013-12-03 22:21:00,40.6,36.4,29.96,WNW,288,3.0,5.0,85,0.00,,,0.00,Wunderground v.1.15,2013-12-04 03:21:00,
2013-12-03 22:22:00,40.6,36.4,29.96,NW,304,3.0,5.0,85,0.00,,,0.00,Wunderground v.1.15,2013-12-04 03:22:00,
2013-12-03 22:24:00,40.6,36.4,29.96,West,274,2.0,5.0,85,0.00,,,0.00,Wunderground v.1.15,2013-12-04 03:24:00,
2013-12-03 22:25:00,40.6,36.4,29.96,NW,304,2.0,5.0,85,0.00,,,0.00,Wunderground v.1.15,2013-12-04 03:25:00,
2013-12-03 22:27:00,40.6,36.4,29.96,WNW,301,3.0,5.0,85,0.00,,,0.00,Wunderground v.1.15,2013-12-04 03:27:00,
2013-12-03 22:29:00,40.5,36.3,29.96,WNW,293,1.0,2.0,85,0.00,,,0.00,Wunderground v.1.15,2013-12-04 03:29:00,
2013-12-03 22:30:00,40.5,36.3,29.96,WNW,290,2.0,4.0,85,0.00,,,0.00,Wunderground v.1.15,2013-12-04 03:30:00,
2013-12-03 22:32:00,40.5,36.3,29.96,WNW,292,2.0,4.0,85,0.00,,,0.00,Wunderground v.1.15,2013-12-04 03:32:00,
2013-12-03 22:35:00,40.4,36.2,29.96,WNW,291,3.0,5.0,85,0.00,,,0.00,Wunderground v.1.15,2013-12-04 03:35:00,
2013-12-03 22:36:00,40.4,36.2,29.96,WNW,297,4.0,5.0,85,0.00,,,0.00,Wunderground v.1.15,2013-12-04 03:36:00,
2013-12-03 22:37:00,40.4,36.2,29.96,WNW,298,2.0,5.0,85,0.00,,,0.00,Wunderground v.1.15,2013-12-04 03:37:00,
2013-12-03 22:40:00,40.3,36.1,29.96,NW,311,4.0,4.0,85,0.00,,,0.00,Wunderground v.1.15,2013-12-04 03:40:00,
2013-12-03 22:41:00,40.3,36.1,29.96,NNW,333,2.0,4.0,85,0.00,,,0.00,Wunderground v.1.15,2013-12-04 03:41:00,
2013-12-03 22:43:00,40.3,36.1,29.96,NW,304,3.0,4.0,85,0.00,,,0.00,Wunderground v.1.15,2013-12-04 03:43:00,
2013-12-03 22:46:00,40.1,36.2,29.96,NW,304,2.0,4.0,86,0.00,,,0.00,Wunderground v.1.15,2013-12-04 03:46:00,
2013-12-03 22:48:00,40.0,36.2,29.96,NW,315,1.0,4.0,86,0.00,,,0.00,Wunderground v.1.15,2013-12-04 03:48:00,
2013-12-03 22:50:00,39.8,36.0,29.96,NW,320,1.0,4.0,86,0.00,,,0.00,Wunderground v.1.15,2013-12-04 03:50:00,
2013-12-03 22:51:00,39.8,36.0,29.96,NW,315,1.0,4.0,86,0.00,,,0.00,Wunderground v.1.15,2013-12-04 03:51:00,
2013-12-03 22:53:00,39.7,35.9,29.96,NW,304,1.0,4.0,86,0.00,,,0.00,Wunderground v.1.15,2013-12-04 03:53:00,
2013-12-03 22:56:00,39.6,36.0,29.96,WNW,295,2.0,4.0,87,0.00,,,0.00,Wunderground v.1.15,2013-12-04 03:56:00,
2013-12-03 22:57:00,39.7,36.1,29.96,WNW,295,1.0,4.0,87,0.00,,,0.00,Wunderground v.1.15,2013-12-04 03:57:00,
2013-12-03 22:58:00,39.6,36.0,29.96,NW,304,2.0,4.0,87,0.00,,,0.00,Wunderground v.1.15,2013-12-04 03:58:00,
2013-12-03 22:59:00,39.6,36.0,29.96,NW,304,1.0,4.0,87,0.00,,,0.00,Wunderground v.1.15,2013-12-04 03:59:00,
2013-12-03 23:01:00,39.6,36.0,29.96,WNW,297,2.0,2.0,87,0.00,,,0.00,Wunderground v.1.15,2013-12-04 04:01:00,
2013-12-03 23:02:00,39.6,36.0,29.96,WNW,297,3.0,3.0,87,0.00,,,0.00,Wunderground v.1.15,2013-12-04 04:02:00,
2013-12-03 23:03:00,39.7,36.1,29.96,WNW,295,2.0,3.0,87,0.00,,,0.00,Wunderground v.1.15,2013-12-04 04:03:00,
2013-12-03 23:04:00,39.6,36.0,29.96,WNW,298,3.0,3.0,87,0.00,,,0.00,Wunderground v.1.15,2013-12-04 04:04:00,
2013-12-03 23:05:00,39.7,36.1,29.96,WNW,301,2.0,3.0,87,0.00,,,0.00,Wunderground v.1.15,2013-12-04 04:05:00,
2013-12-03 23:06:00,39.7,36.1,29.96,NW,304,1.0,4.0,87,0.00,,,0.00,Wunderground v.1.15,2013-12-04 04:06:00,
2013-12-03 23:07:00,39.7,36.1,29.96,WNW,301,3.0,4.0,87,0.00,,,0.00,Wunderground v.1.15,2013-12-04 04:07:00,
2013-12-03 23:08:00,39.6,36.0,29.96,WNW,298,2.0,4.0,87,0.00,,,0.00,Wunderground v.1.15,2013-12-04 04:08:00,
2013-12-03 23:09:00,39.6,36.0,29.96,WNW,298,1.0,4.0,87,0.00,,,0.00,Wunderground v.1.15,2013-12-04 04:09:00,
2013-12-03 23:10:00,39.6,36.0,29.96,WNW,285,2.0,2.0,87,0.00,,,0.00,Wunderground v.1.15,2013-12-04 04:10:00,
2013-12-03 23:11:00,39.6,36.0,29.96,NW,307,2.0,4.0,87,0.00,,,0.00,Wunderground v.1.15,2013-12-04 04:11:00,
2013-12-03 23:12:00,39.6,36.0,29.96,WNW,301,1.0,4.0,87,0.00,,,0.00,Wunderground v.1.15,2013-12-04 04:12:00,
2013-12-03 23:13:00,39.6,36.0,29.96,WNW,288,2.0,4.0,87,0.00,,,0.00,Wunderground v.1.15,2013-12-04 04:13:00,
2013-12-03 23:14:00,39.5,36.0,29.96,WNW,293,2.0,4.0,87,0.00,,,0.00,Wunderground v.1.15,2013-12-04 04:14:00,
2013-12-03 23:15:00,39.5,36.0,29.96,WNW,295,2.0,4.0,87,0.00,,,0.00,Wunderground v.1.15,2013-12-04 04:15:00,
2013-12-03 23:16:00,39.5,36.0,29.96,WNW,295,2.0,4.0,87,0.00,,,0.00,Wunderground v.1.15,2013-12-04 04:16:00,
2013-12-03 23:17:00,39.5,36.0,29.96,WNW,301,2.0,4.0,87,0.00,,,0.00,Wunderground v.1.15,2013-12-04 04:17:00,
2013-12-03 23:18:00,39.5,36.0,29.96,WNW,291,2.0,4.0,87,0.00,,,0.00,Wunderground v.1.15,2013-12-04 04:18:00,
2013-12-03 23:19:00,39.5,36.0,29.96,WNW,291,2.0,4.0,87,0.00,,,0.00,Wunderground v.1.15,2013-12-04 04:19:00,
2013-12-03 23:20:00,39.4,35.9,29.96,WNW,287,2.0,2.0,87,0.00,,,0.00,Wunderground v.1.15,2013-12-04 04:20:00,
2013-12-03 23:22:00,39.4,35.9,29.96,WNW,288,1.0,2.0,87,0.00,,,0.00,Wunderground v.1.15,2013-12-04 04:22:00,
2013-12-03 23:24:00,39.4,35.9,29.96,WNW,293,1.0,2.0,87,0.00,,,0.00,Wunderground v.1.15,2013-12-04 04:24:00,
2013-12-03 23:26:00,39.3,35.8,29.96,West,278,1.0,2.0,87,0.00,,,0.00,Wunderground v.1.15,2013-12-04 04:26:00,
2013-12-03 23:27:00,39.3,35.8,29.96,WNW,284,1.0,2.0,87,0.00,,,0.00,Wunderground v.1.15,2013-12-04 04:27:00,
2013-12-03 23:29:00,39.2,35.7,29.96,WNW,285,1.0,2.0,87,0.00,,,0.00,Wunderground v.1.15,2013-12-04 04:29:00,
2013-12-03 23:30:00,39.2,35.7,29.96,WNW,290,2.0,2.0,87,0.00,,,0.00,Wunderground v.1.15,2013-12-04 04:30:00,
2013-12-03 23:32:00,39.1,35.6,29.96,WNW,290,1.0,2.0,87,0.00,,,0.00,Wunderground v.1.15,2013-12-04 04:32:00,
2013-12-03 23:33:00,39.1,35.8,29.96,WNW,295,1.0,2.0,88,0.00,,,0.00,Wunderground v.1.15,2013-12-04 04:33:00,
2013-12-03 23:34:00,39.1,35.8,29.96,WNW,297,2.0,2.0,88,0.00,,,0.00,Wunderground v.1.15,2013-12-04 04:34:00,
2013-12-03 23:35:00,39.0,35.7,29.96,WNW,287,1.0,2.0,88,0.00,,,0.00,Wunderground v.1.15,2013-12-04 04:35:00,
2013-12-03 23:37:00,39.0,35.7,29.96,WNW,297,2.0,3.0,88,0.00,,,0.00,Wunderground v.1.15,2013-12-04 04:37:00,
2013-12-03 23:38:00,39.0,35.7,29.96,WNW,301,2.0,3.0,88,0.00,,,0.00,Wunderground v.1.15,2013-12-04 04:38:00,
2013-12-03 23:39:00,39.0,35.7,29.96,WNW,289,2.0,3.0,88,0.00,,,0.00,Wunderground v.1.15,2013-12-04 04:39:00,
2013-12-03 23:40:00,39.0,35.7,29.97,WNW,298,2.0,3.0,88,0.00,,,0.00,Wunderground v.1.15,2013-12-04 04:40:00,
2013-12-03 23:42:00,39.0,35.7,29.97,WNW,287,2.0,3.0,88,0.00,,,0.00,Wunderground v.1.15,2013-12-04 04:42:00,
2013-12-03 23:43:00,39.0,35.7,29.97,WNW,295,3.0,3.0,88,0.00,,,0.00,Wunderground v.1.15,2013-12-04 04:43:00,
2013-12-03 23:44:00,39.0,35.7,29.97,WNW,295,2.0,3.0,88,0.00,,,0.00,Wunderground v.1.15,2013-12-04 04:44:00,
2013-12-03 23:45:00,39.0,35.7,29.97,WNW,290,1.0,3.0,88,0.00,,,0.00,Wunderground v.1.15,2013-12-04 04:45:00,
2013-12-03 23:47:00,38.9,35.6,29.97,WNW,298,1.0,3.0,88,0.00,,,0.00,Wunderground v.1.15,2013-12-04 04:47:00,
2013-12-03 23:48:00,38.9,35.6,29.97,WNW,297,1.0,3.0,88,0.00,,,0.00,Wunderground v.1.15,2013-12-04 04:48:00,
2013-12-03 23:49:00,38.9,35.6,29.97,WNW,293,1.0,3.0,88,0.00,,,0.00,Wunderground v.1.15,2013-12-04 04:49:00,
2013-12-03 23:50:00,38.9,35.6,29.97,WNW,298,2.0,3.0,88,0.00,,,0.00,Wunderground v.1.15,2013-12-04 04:50:00,
2013-12-03 23:52:00,38.9,35.6,29.97,NW,307,2.0,3.0,88,0.00,,,0.00,Wunderground v.1.15,2013-12-04 04:52:00,
2013-12-03 23:53:00,38.9,35.6,29.97,WNW,297,1.0,3.0,88,0.00,,,0.00,Wunderground v.1.15,2013-12-04 04:53:00,
2013-12-03 23:54:00,38.8,35.6,29.97,WNW,301,2.0,3.0,88,0.00,,,0.00,Wunderground v.1.15,2013-12-04 04:54:00,
2013-12-03 23:55:00,38.8,35.6,29.97,NW,307,2.0,3.0,88,0.00,,,0.00,Wunderground v.1.15,2013-12-04 04:55:00,
2013-12-03 23:58:00,38.8,35.6,29.97,WNW,295,2.0,4.0,88,0.00,,,0.00,Wunderground v.1.15,2013-12-04 04:58:00,
2013-12-03 23:59:00,38.8,35.6,29.97,WNW,301,4.0,4.0,88,0.00,,,0.00,Wunderground v.1.15,2013-12-04 04:59:00,